<?xml version='1.0' encoding='UTF-8'?><gpx version="1.1" creator="JPX - https://github.com/jenetics/jpx" xmlns="http://www.topografix.com/GPX/1/1"><trk><trkseg><trkpt lat="46.093908542104046" lon="13.232739222439436"><ele>127.00000000000001</ele><time>2026-04-04T13:44:10Z</time></trkpt><trkpt lat="46.093828832800526" lon="13.232728060162916"><ele>127.0</ele><time>2026-04-04T13:44:12Z</time></trkpt><trkpt lat="46.09375244713052" lon="13.232737837204464"><ele>127.0</ele><time>2026-04-04T13:44:14Z</time></trkpt><trkpt lat="46.09370306812536" lon="13.23285347466632"><ele>127.0</ele><time>2026-04-04T13:44:16Z</time></trkpt><trkpt lat="46.093661259180394" lon="13.232999472409768"><ele>127.00000000000001</ele><time>2026-04-04T13:44:18Z</time></trkpt><trkpt lat="46.09362380867744" lon="13.2331045749009"><ele>127.0</ele><time>2026-04-04T13:44:20Z</time></trkpt><trkpt lat="46.09358195873726" lon="13.233185620746617"><ele>127.6</ele><time>2026-04-04T13:44:22Z</time></trkpt><trkpt lat="46.09354323632584" lon="13.233301595789685"><ele>128.2</ele><time>2026-04-04T13:44:24Z</time></trkpt><trkpt lat="46.093494524748" lon="13.233422677388964"><ele>128.8</ele><time>2026-04-04T13:44:27Z</time></trkpt><trkpt lat="46.093454370561616" lon="13.233532130773327"><ele>129.4</ele><time>2026-04-04T13:44:29Z</time></trkpt><trkpt lat="46.09339479358742" lon="13.233663602200888"><ele>130.0</ele><time>2026-04-04T13:44:31Z</time></trkpt><trkpt lat="46.093353902721766" lon="13.233767599645496"><ele>130.0</ele><time>2026-04-04T13:44:33Z</time></trkpt><trkpt lat="46.09331258124817" lon="13.233862959571997"><ele>130.0</ele><time>2026-04-04T13:44:35Z</time></trkpt><trkpt lat="46.093353593866475" lon="13.234005352956347"><ele>130.0</ele><time>2026-04-04T13:44:37Z</time></trkpt><trkpt lat="46.09346044967085" lon="13.234055985747402"><ele>130.0</ele><time>2026-04-04T13:44:39Z</time></trkpt><trkpt lat="46.09356769852424" lon="13.234107933321269"><ele>130.0</ele><time>2026-04-04T13:44:41Z</time></trkpt><trkpt lat="46.09366216497767" lon="13.234148673274934"><ele>130.0</ele><time>2026-04-04T13:44:43Z</time></trkpt><trkpt lat="46.0937602430608" lon="13.234178536614229"><ele>130.0</ele><time>2026-04-04T13:44:45Z</time></trkpt><trkpt lat="46.093862043777506" lon="13.23420944958705"><ele>130.0</ele><time>2026-04-04T13:44:47Z</time></trkpt><trkpt lat="46.09392712503916" lon="13.234220099986842"><ele>130.0</ele><time>2026-04-04T13:44:53Z</time></trkpt><trkpt lat="46.09403054082052" lon="13.234237767593253"><ele>130.0</ele><time>2026-04-04T13:44:55Z</time></trkpt><trkpt lat="46.09410609033906" lon="13.23423219552814"><ele>129.5</ele><time>2026-04-04T13:44:57Z</time></trkpt><trkpt lat="46.09417897432261" lon="13.234225457127696"><ele>129.0</ele><time>2026-04-04T13:44:59Z</time></trkpt><trkpt lat="46.09424869059714" lon="13.234208973527608"><ele>128.5</ele><time>2026-04-04T13:45:01Z</time></trkpt><trkpt lat="46.09433377048799" lon="13.234198967055276"><ele>128.0</ele><time>2026-04-04T13:45:04Z</time></trkpt><trkpt lat="46.094397719552425" lon="13.234183103316214"><ele>127.50000000000001</ele><time>2026-04-04T13:45:06Z</time></trkpt><trkpt lat="46.094485147951616" lon="13.234155982513176"><ele>127.0</ele><time>2026-04-04T13:45:08Z</time></trkpt><trkpt lat="46.09457603291593" lon="13.234105515080042"><ele>127.00000000000001</ele><time>2026-04-04T13:45:10Z</time></trkpt><trkpt lat="46.094633096451034" lon="13.234051521824234"><ele>127.0</ele><time>2026-04-04T13:45:12Z</time></trkpt><trkpt lat="46.094626908412046" lon="13.233914547505586"><ele>127.0</ele><time>2026-04-04T13:45:14Z</time></trkpt><trkpt lat="46.09459356851337" lon="13.233835067935791"><ele>127.0</ele><time>2026-04-04T13:45:15Z</time></trkpt><trkpt lat="46.094556509162956" lon="13.23371497586933"><ele>127.00000000000001</ele><time>2026-04-04T13:45:17Z</time></trkpt><trkpt lat="46.09452308793704" lon="13.233590023730551"><ele>127.0</ele><time>2026-04-04T13:45:20Z</time></trkpt><trkpt lat="46.094513951264865" lon="13.23346712805204"><ele>127.0</ele><time>2026-04-04T13:45:22Z</time></trkpt><trkpt lat="46.09448735886708" lon="13.233333422577926"><ele>126.99999999999999</ele><time>2026-04-04T13:45:25Z</time></trkpt><trkpt lat="46.0945952721567" lon="13.23325131087832"><ele>126.99999999999999</ele><time>2026-04-04T13:45:28Z</time></trkpt><trkpt lat="46.094695742804426" lon="13.23319713111513"><ele>127.0</ele><time>2026-04-04T13:45:30Z</time></trkpt><trkpt lat="46.09476197011939" lon="13.233157936542204"><ele>127.0</ele><time>2026-04-04T13:45:31Z</time></trkpt><trkpt lat="46.09483022869137" lon="13.233119276693339"><ele>127.00000000000001</ele><time>2026-04-04T13:45:32Z</time></trkpt><trkpt lat="46.09494153830332" lon="13.233064684443523"><ele>127.0</ele><time>2026-04-04T13:45:34Z</time></trkpt><trkpt lat="46.095038671799344" lon="13.233126239647614"><ele>127.0</ele><time>2026-04-04T13:45:36Z</time></trkpt><trkpt lat="46.095067297204494" lon="13.23321007383401"><ele>127.0</ele><time>2026-04-04T13:45:37Z</time></trkpt><trkpt lat="46.09508484774569" lon="13.233310415080656"><ele>127.00000000000001</ele><time>2026-04-04T13:45:38Z</time></trkpt><trkpt lat="46.09510775193328" lon="13.233417618638697"><ele>127.0</ele><time>2026-04-04T13:45:39Z</time></trkpt><trkpt lat="46.09514603617585" lon="13.233542924436724"><ele>127.0</ele><time>2026-04-04T13:45:40Z</time></trkpt><trkpt lat="46.095183967075116" lon="13.233648715978335"><ele>126.99999999999999</ele><time>2026-04-04T13:45:41Z</time></trkpt><trkpt lat="46.095236610072135" lon="13.233763935589074"><ele>126.99999999999999</ele><time>2026-04-04T13:45:42Z</time></trkpt><trkpt lat="46.0953045191237" lon="13.233908393686354"><ele>127.0</ele><time>2026-04-04T13:45:43Z</time></trkpt><trkpt lat="46.09537262589621" lon="13.234065204214415"><ele>127.0</ele><time>2026-04-04T13:45:44Z</time></trkpt><trkpt lat="46.09541863736221" lon="13.234189966268183"><ele>127.0</ele><time>2026-04-04T13:45:45Z</time></trkpt><trkpt lat="46.09544905549237" lon="13.234305614360943"><ele>126.99999999999999</ele><time>2026-04-04T13:45:46Z</time></trkpt><trkpt lat="46.09547490302438" lon="13.234405559530355"><ele>126.99999999999999</ele><time>2026-04-04T13:45:47Z</time></trkpt><trkpt lat="46.095499142572955" lon="13.234492978905239"><ele>127.0</ele><time>2026-04-04T13:45:48Z</time></trkpt><trkpt lat="46.09552594484881" lon="13.234621900959157"><ele>127.0</ele><time>2026-04-04T13:45:50Z</time></trkpt><trkpt lat="46.09566007623495" lon="13.234610039934184"><ele>127.00000000000001</ele><time>2026-04-04T13:45:52Z</time></trkpt><trkpt lat="46.09573691130184" lon="13.234542214449815"><ele>127.0</ele><time>2026-04-04T13:45:55Z</time></trkpt><trkpt lat="46.09575586547224" lon="13.234394403204368"><ele>127.0</ele><time>2026-04-04T13:45:57Z</time></trkpt><trkpt lat="46.0957309594152" lon="13.234304577038753"><ele>127.0</ele><time>2026-04-04T13:45:58Z</time></trkpt><trkpt lat="46.09569550370248" lon="13.234190421740816"><ele>127.00000000000001</ele><time>2026-04-04T13:45:59Z</time></trkpt><trkpt lat="46.09565947900879" lon="13.234067648618968"><ele>127.0</ele><time>2026-04-04T13:46:00Z</time></trkpt><trkpt lat="46.0956330799188" lon="13.233963070384187"><ele>127.0</ele><time>2026-04-04T13:46:01Z</time></trkpt><trkpt lat="46.095606952956274" lon="13.233864232855703"><ele>126.99999999999999</ele><time>2026-04-04T13:46:02Z</time></trkpt><trkpt lat="46.095581186861736" lon="13.233767062364667"><ele>126.99999999999999</ele><time>2026-04-04T13:46:03Z</time></trkpt><trkpt lat="46.09554193406618" lon="13.233642405681247"><ele>127.0</ele><time>2026-04-04T13:46:04Z</time></trkpt><trkpt lat="46.095500103771116" lon="13.233485355092345"><ele>127.0</ele><time>2026-04-04T13:46:05Z</time></trkpt><trkpt lat="46.095461948179995" lon="13.23330320152719"><ele>126.5</ele><time>2026-04-04T13:46:06Z</time></trkpt><trkpt lat="46.095411169655584" lon="13.233099887856893"><ele>126.0</ele><time>2026-04-04T13:46:07Z</time></trkpt><trkpt lat="46.09536366600658" lon="13.232911206086786"><ele>125.5</ele><time>2026-04-04T13:46:08Z</time></trkpt><trkpt lat="46.09528640962435" lon="13.232738799828306"><ele>125.0</ele><time>2026-04-04T13:46:09Z</time></trkpt><trkpt lat="46.09522437086638" lon="13.232583612467286"><ele>125.0</ele><time>2026-04-04T13:46:10Z</time></trkpt><trkpt lat="46.09517667558472" lon="13.23245294687795"><ele>125.0</ele><time>2026-04-04T13:46:11Z</time></trkpt><trkpt lat="46.095139561614" lon="13.23232357120844"><ele>125.0</ele><time>2026-04-04T13:46:12Z</time></trkpt><trkpt lat="46.09508995763424" lon="13.232212648724762"><ele>125.0</ele><time>2026-04-04T13:46:13Z</time></trkpt><trkpt lat="46.095047079260894" lon="13.232102064091368"><ele>125.0</ele><time>2026-04-04T13:46:14Z</time></trkpt><trkpt lat="46.09499709524384" lon="13.231990423719399"><ele>125.16666666666666</ele><time>2026-04-04T13:46:15Z</time></trkpt><trkpt lat="46.09496126525641" lon="13.231886148515722"><ele>125.33333333333333</ele><time>2026-04-04T13:46:16Z</time></trkpt><trkpt lat="46.09494005636206" lon="13.2317957385122"><ele>125.5</ele><time>2026-04-04T13:46:17Z</time></trkpt><trkpt lat="46.094948184783895" lon="13.23162822777927"><ele>125.66666666666666</ele><time>2026-04-04T13:46:19Z</time></trkpt><trkpt lat="46.09499203225037" lon="13.231561411563977"><ele>125.83333333333333</ele><time>2026-04-04T13:46:22Z</time></trkpt><trkpt lat="46.09505298656826" lon="13.231456769504328"><ele>126.0</ele><time>2026-04-04T13:46:24Z</time></trkpt><trkpt lat="46.09510003552747" lon="13.231382540586553"><ele>126.0</ele><time>2026-04-04T13:46:25Z</time></trkpt><trkpt lat="46.095161667176846" lon="13.231280188047496"><ele>126.0</ele><time>2026-04-04T13:46:26Z</time></trkpt><trkpt lat="46.09530541189061" lon="13.231355727215831"><ele>126.0</ele><time>2026-04-04T13:46:27Z</time></trkpt><trkpt lat="46.09530603242924" lon="13.23117000728697"><ele>126.0</ele><time>2026-04-04T13:46:28Z</time></trkpt><trkpt lat="46.095377064915446" lon="13.23118079680851"><ele>126.0</ele><time>2026-04-04T13:46:29Z</time></trkpt><trkpt lat="46.095450488925195" lon="13.231166204983685"><ele>126.0</ele><time>2026-04-04T13:46:30Z</time></trkpt><trkpt lat="46.09552887485588" lon="13.231149626573961"><ele>126.0</ele><time>2026-04-04T13:46:31Z</time></trkpt><trkpt lat="46.09560078742641" lon="13.231133028018395"><ele>126.0</ele><time>2026-04-04T13:46:32Z</time></trkpt><trkpt lat="46.09568024384212" lon="13.231114251079367"><ele>126.0</ele><time>2026-04-04T13:46:33Z</time></trkpt><trkpt lat="46.09576408956791" lon="13.231093771642298"><ele>126.0</ele><time>2026-04-04T13:46:34Z</time></trkpt><trkpt lat="46.09585542670448" lon="13.231069296783291"><ele>126.0</ele><time>2026-04-04T13:46:35Z</time></trkpt><trkpt lat="46.09595189371782" lon="13.231050421883767"><ele>126.19999999999999</ele><time>2026-04-04T13:46:36Z</time></trkpt><trkpt lat="46.09605152987126" lon="13.231027986214487"><ele>126.39999999999999</ele><time>2026-04-04T13:46:37Z</time></trkpt><trkpt lat="46.09615239388237" lon="13.231006752324282"><ele>126.6</ele><time>2026-04-04T13:46:38Z</time></trkpt><trkpt lat="46.09625665361059" lon="13.230985768313161"><ele>126.8</ele><time>2026-04-04T13:46:39Z</time></trkpt><trkpt lat="46.09636001502196" lon="13.230964098156045"><ele>127.0</ele><time>2026-04-04T13:46:40Z</time></trkpt><trkpt lat="46.09645694886543" lon="13.230944354670937"><ele>127.00000000000001</ele><time>2026-04-04T13:46:41Z</time></trkpt><trkpt lat="46.09654005613497" lon="13.230931318407409"><ele>127.0</ele><time>2026-04-04T13:46:42Z</time></trkpt><trkpt lat="46.09662035008667" lon="13.23092083806549"><ele>127.0</ele><time>2026-04-04T13:46:43Z</time></trkpt><trkpt lat="46.096702145504985" lon="13.23090065588635"><ele>127.0</ele><time>2026-04-04T13:46:44Z</time></trkpt><trkpt lat="46.096796207124925" lon="13.23087591001565"><ele>127.00000000000001</ele><time>2026-04-04T13:46:45Z</time></trkpt><trkpt lat="46.09689640570345" lon="13.230850647240096"><ele>127.0</ele><time>2026-04-04T13:46:46Z</time></trkpt><trkpt lat="46.096996189197846" lon="13.230829356154004"><ele>127.00000000000001</ele><time>2026-04-04T13:46:47Z</time></trkpt><trkpt lat="46.09708202020526" lon="13.230809397779328"><ele>127.0</ele><time>2026-04-04T13:46:48Z</time></trkpt><trkpt lat="46.09716638855886" lon="13.230789984028588"><ele>127.0</ele><time>2026-04-04T13:46:49Z</time></trkpt><trkpt lat="46.0972541334067" lon="13.230769709024647"><ele>127.0</ele><time>2026-04-04T13:46:50Z</time></trkpt><trkpt lat="46.09734325795136" lon="13.230752790155918"><ele>127.00000000000001</ele><time>2026-04-04T13:46:51Z</time></trkpt><trkpt lat="46.09743532258335" lon="13.230736617473543"><ele>127.0</ele><time>2026-04-04T13:46:52Z</time></trkpt><trkpt lat="46.09751386520102" lon="13.230721057036602"><ele>127.00000000000001</ele><time>2026-04-04T13:46:53Z</time></trkpt><trkpt lat="46.09758016577444" lon="13.230710342585"><ele>127.0</ele><time>2026-04-04T13:46:54Z</time></trkpt><trkpt lat="46.09764328736254" lon="13.230698167602478"><ele>127.0</ele><time>2026-04-04T13:46:55Z</time></trkpt><trkpt lat="46.097763079331514" lon="13.230680174744343"><ele>127.0</ele><time>2026-04-04T13:46:57Z</time></trkpt><trkpt lat="46.09783985339222" lon="13.230666911326711"><ele>127.00000000000001</ele><time>2026-04-04T13:46:59Z</time></trkpt><trkpt lat="46.09792463094149" lon="13.230645314086331"><ele>127.0</ele><time>2026-04-04T13:47:02Z</time></trkpt><trkpt lat="46.09799990290006" lon="13.230641065326525"><ele>127.00000000000001</ele><time>2026-04-04T13:47:04Z</time></trkpt><trkpt lat="46.098071819546476" lon="13.230661477755413"><ele>127.0</ele><time>2026-04-04T13:47:07Z</time></trkpt><trkpt lat="46.098131105120885" lon="13.230705027223543"><ele>127.0</ele><time>2026-04-04T13:47:09Z</time></trkpt><trkpt lat="46.0982329787313" lon="13.230793625295723"><ele>127.0</ele><time>2026-04-04T13:47:11Z</time></trkpt><trkpt lat="46.09830430326007" lon="13.230822069183839"><ele>127.00000000000001</ele><time>2026-04-04T13:47:12Z</time></trkpt><trkpt lat="46.098369292455274" lon="13.23081032534637"><ele>127.0</ele><time>2026-04-04T13:47:13Z</time></trkpt><trkpt lat="46.098434990613825" lon="13.23076103278794"><ele>127.0</ele><time>2026-04-04T13:47:14Z</time></trkpt><trkpt lat="46.09850073508959" lon="13.230682644449447"><ele>126.99999999999999</ele><time>2026-04-04T13:47:15Z</time></trkpt><trkpt lat="46.09857408632202" lon="13.23058368914389"><ele>126.99999999999999</ele><time>2026-04-04T13:47:16Z</time></trkpt><trkpt lat="46.09867616248405" lon="13.230504483215743"><ele>127.0</ele><time>2026-04-04T13:47:17Z</time></trkpt><trkpt lat="46.09878968973298" lon="13.230462558156075"><ele>127.0</ele><time>2026-04-04T13:47:18Z</time></trkpt><trkpt lat="46.09889326598312" lon="13.230439532217922"><ele>127.0</ele><time>2026-04-04T13:47:19Z</time></trkpt><trkpt lat="46.09899701346268" lon="13.230413950672366"><ele>127.0</ele><time>2026-04-04T13:47:20Z</time></trkpt><trkpt lat="46.099119641281206" lon="13.230381844613145"><ele>127.0</ele><time>2026-04-04T13:47:21Z</time></trkpt><trkpt lat="46.09925472101655" lon="13.230346419889251"><ele>127.0</ele><time>2026-04-04T13:47:22Z</time></trkpt><trkpt lat="46.099398709492036" lon="13.230313818470336"><ele>127.0</ele><time>2026-04-04T13:47:23Z</time></trkpt><trkpt lat="46.09953713692707" lon="13.230283674595496"><ele>127.0</ele><time>2026-04-04T13:47:24Z</time></trkpt><trkpt lat="46.09967494099533" lon="13.230253184181938"><ele>127.0</ele><time>2026-04-04T13:47:25Z</time></trkpt><trkpt lat="46.09980531413274" lon="13.23022640732497"><ele>127.0</ele><time>2026-04-04T13:47:26Z</time></trkpt><trkpt lat="46.0999253361164" lon="13.230205056729842"><ele>127.75</ele><time>2026-04-04T13:47:27Z</time></trkpt><trkpt lat="46.10005181176295" lon="13.230177295642664"><ele>128.5</ele><time>2026-04-04T13:47:28Z</time></trkpt><trkpt lat="46.10017307472649" lon="13.23014948518098"><ele>129.25</ele><time>2026-04-04T13:47:29Z</time></trkpt><trkpt lat="46.1002831905611" lon="13.230123852972634"><ele>130.0</ele><time>2026-04-04T13:47:30Z</time></trkpt><trkpt lat="46.100393032336655" lon="13.23010327519026"><ele>130.0</ele><time>2026-04-04T13:47:31Z</time></trkpt><trkpt lat="46.100515516498575" lon="13.23007837152472"><ele>130.0</ele><time>2026-04-04T13:47:32Z</time></trkpt><trkpt lat="46.1006434157789" lon="13.23005188817854"><ele>130.0</ele><time>2026-04-04T13:47:33Z</time></trkpt><trkpt lat="46.10078097412397" lon="13.230022533315067"><ele>130.0</ele><time>2026-04-04T13:47:34Z</time></trkpt><trkpt lat="46.10092057745341" lon="13.229990199995456"><ele>130.0</ele><time>2026-04-04T13:47:35Z</time></trkpt><trkpt lat="46.10106871079424" lon="13.229953583370765"><ele>130.0</ele><time>2026-04-04T13:47:36Z</time></trkpt><trkpt lat="46.10120796038872" lon="13.22991828944082"><ele>130.0</ele><time>2026-04-04T13:47:37Z</time></trkpt><trkpt lat="46.101347682669605" lon="13.22988661723266"><ele>130.0</ele><time>2026-04-04T13:47:38Z</time></trkpt><trkpt lat="46.10150170115804" lon="13.229861395951914"><ele>130.0</ele><time>2026-04-04T13:47:39Z</time></trkpt><trkpt lat="46.101652253026494" lon="13.229837588367753"><ele>130.0</ele><time>2026-04-04T13:47:40Z</time></trkpt><trkpt lat="46.10178902046778" lon="13.229806966080451"><ele>130.0</ele><time>2026-04-04T13:47:41Z</time></trkpt><trkpt lat="46.10191296488399" lon="13.229779248282785"><ele>130.0</ele><time>2026-04-04T13:47:42Z</time></trkpt><trkpt lat="46.10203384070535" lon="13.229755080691511"><ele>130.0</ele><time>2026-04-04T13:47:43Z</time></trkpt><trkpt lat="46.10214508324478" lon="13.229731431709318"><ele>130.0</ele><time>2026-04-04T13:47:44Z</time></trkpt><trkpt lat="46.102247242003095" lon="13.229708494082933"><ele>130.0</ele><time>2026-04-04T13:47:45Z</time></trkpt><trkpt lat="46.10234002459221" lon="13.229687109966989"><ele>130.0</ele><time>2026-04-04T13:47:46Z</time></trkpt><trkpt lat="46.10244581367003" lon="13.229666214461762"><ele>130.0</ele><time>2026-04-04T13:47:47Z</time></trkpt><trkpt lat="46.102561556172866" lon="13.229643633980096"><ele>129.75</ele><time>2026-04-04T13:47:48Z</time></trkpt><trkpt lat="46.10268079235456" lon="13.22962342921507"><ele>129.5</ele><time>2026-04-04T13:47:49Z</time></trkpt><trkpt lat="46.102787715888674" lon="13.229605450232532"><ele>129.25</ele><time>2026-04-04T13:47:50Z</time></trkpt><trkpt lat="46.102905522933035" lon="13.229581034405385"><ele>129.0</ele><time>2026-04-04T13:47:51Z</time></trkpt><trkpt lat="46.10303494376947" lon="13.2295571372138"><ele>129.0</ele><time>2026-04-04T13:47:52Z</time></trkpt><trkpt lat="46.10316849874948" lon="13.22953582959772"><ele>129.0</ele><time>2026-04-04T13:47:53Z</time></trkpt><trkpt lat="46.10329126565831" lon="13.229513981895122"><ele>129.0</ele><time>2026-04-04T13:47:54Z</time></trkpt><trkpt lat="46.103411413500076" lon="13.229483819000112"><ele>129.0</ele><time>2026-04-04T13:47:55Z</time></trkpt><trkpt lat="46.10352872108422" lon="13.229450732142206"><ele>129.75</ele><time>2026-04-04T13:47:56Z</time></trkpt><trkpt lat="46.103659517221146" lon="13.229418261203188"><ele>130.5</ele><time>2026-04-04T13:47:57Z</time></trkpt><trkpt lat="46.10380214573444" lon="13.22938509282536"><ele>131.25</ele><time>2026-04-04T13:47:58Z</time></trkpt><trkpt lat="46.103944894854145" lon="13.229355196557929"><ele>132.0</ele><time>2026-04-04T13:47:59Z</time></trkpt><trkpt lat="46.10407766956026" lon="13.229326591225774"><ele>132.0</ele><time>2026-04-04T13:48:00Z</time></trkpt><trkpt lat="46.10420958150228" lon="13.229298305367763"><ele>132.0</ele><time>2026-04-04T13:48:01Z</time></trkpt><trkpt lat="46.10435069419081" lon="13.229269900987799"><ele>132.0</ele><time>2026-04-04T13:48:02Z</time></trkpt><trkpt lat="46.10449198583488" lon="13.229247799613669"><ele>132.0</ele><time>2026-04-04T13:48:03Z</time></trkpt><trkpt lat="46.10462076663538" lon="13.229223423299109"><ele>132.0</ele><time>2026-04-04T13:48:04Z</time></trkpt><trkpt lat="46.10473544476125" lon="13.229195506168619"><ele>132.0</ele><time>2026-04-04T13:48:05Z</time></trkpt><trkpt lat="46.104835609380046" lon="13.22916962878328"><ele>132.0</ele><time>2026-04-04T13:48:06Z</time></trkpt><trkpt lat="46.104931981471516" lon="13.229150019862395"><ele>132.0</ele><time>2026-04-04T13:48:07Z</time></trkpt><trkpt lat="46.105025344362126" lon="13.229134704956243"><ele>132.0</ele><time>2026-04-04T13:48:08Z</time></trkpt><trkpt lat="46.10512587350523" lon="13.22911323095166"><ele>132.0</ele><time>2026-04-04T13:48:09Z</time></trkpt><trkpt lat="46.10523496954907" lon="13.229087648607752"><ele>132.0</ele><time>2026-04-04T13:48:10Z</time></trkpt><trkpt lat="46.10534743025174" lon="13.229065142348905"><ele>132.0</ele><time>2026-04-04T13:48:11Z</time></trkpt><trkpt lat="46.105460129467374" lon="13.229042741334904"><ele>132.0</ele><time>2026-04-04T13:48:12Z</time></trkpt><trkpt lat="46.10558175680674" lon="13.229016427706673"><ele>132.0</ele><time>2026-04-04T13:48:13Z</time></trkpt><trkpt lat="46.105700040661134" lon="13.228988594691765"><ele>132.0</ele><time>2026-04-04T13:48:14Z</time></trkpt><trkpt lat="46.10580528494433" lon="13.228965066741369"><ele>132.0</ele><time>2026-04-04T13:48:15Z</time></trkpt><trkpt lat="46.10590612245163" lon="13.228946118179376"><ele>132.0</ele><time>2026-04-04T13:48:16Z</time></trkpt><trkpt lat="46.10600745506822" lon="13.22892615596653"><ele>132.0</ele><time>2026-04-04T13:48:17Z</time></trkpt><trkpt lat="46.10610882670512" lon="13.228903874901702"><ele>132.2</ele><time>2026-04-04T13:48:18Z</time></trkpt><trkpt lat="46.106209906888" lon="13.228885472841355"><ele>132.39999999999998</ele><time>2026-04-04T13:48:19Z</time></trkpt><trkpt lat="46.10631046796386" lon="13.228868221833563"><ele>132.60000000000002</ele><time>2026-04-04T13:48:20Z</time></trkpt><trkpt lat="46.10641069967117" lon="13.228851985722539"><ele>132.8</ele><time>2026-04-04T13:48:21Z</time></trkpt><trkpt lat="46.10651121954225" lon="13.228837945321814"><ele>133.0</ele><time>2026-04-04T13:48:22Z</time></trkpt><trkpt lat="46.10660580951617" lon="13.228826998531048"><ele>133.0</ele><time>2026-04-04T13:48:23Z</time></trkpt><trkpt lat="46.10669381478972" lon="13.228818469653133"><ele>133.0</ele><time>2026-04-04T13:48:24Z</time></trkpt><trkpt lat="46.106790576547496" lon="13.228815606116576"><ele>133.0</ele><time>2026-04-04T13:48:25Z</time></trkpt><trkpt lat="46.10689438857177" lon="13.228808544320867"><ele>133.0</ele><time>2026-04-04T13:48:26Z</time></trkpt><trkpt lat="46.106997724918024" lon="13.228794083846116"><ele>133.0</ele><time>2026-04-04T13:48:27Z</time></trkpt><trkpt lat="46.10708940132598" lon="13.228792193513243"><ele>133.0</ele><time>2026-04-04T13:48:28Z</time></trkpt><trkpt lat="46.107158714395624" lon="13.228805539075575"><ele>133.0</ele><time>2026-04-04T13:48:29Z</time></trkpt><trkpt lat="46.10722324554977" lon="13.228824513139482"><ele>133.0</ele><time>2026-04-04T13:48:30Z</time></trkpt><trkpt lat="46.10730687053178" lon="13.228882727608303"><ele>133.0</ele><time>2026-04-04T13:48:31Z</time></trkpt><trkpt lat="46.107383330565135" lon="13.228945655520635"><ele>133.0</ele><time>2026-04-04T13:48:32Z</time></trkpt><trkpt lat="46.10749324412238" lon="13.228962550379654"><ele>133.0</ele><time>2026-04-04T13:48:34Z</time></trkpt><trkpt lat="46.1075958295222" lon="13.22884968952659"><ele>133.0</ele><time>2026-04-04T13:48:36Z</time></trkpt><trkpt lat="46.10761641004409" lon="13.228737084898743"><ele>133.0</ele><time>2026-04-04T13:48:37Z</time></trkpt><trkpt lat="46.107609048067246" lon="13.22861819012637"><ele>133.0</ele><time>2026-04-04T13:48:38Z</time></trkpt><trkpt lat="46.107560956999535" lon="13.228507683187086"><ele>133.0</ele><time>2026-04-04T13:48:39Z</time></trkpt><trkpt lat="46.10748658543555" lon="13.228416022779427"><ele>133.0</ele><time>2026-04-04T13:48:40Z</time></trkpt><trkpt lat="46.10740743204036" lon="13.228322662934453"><ele>133.0</ele><time>2026-04-04T13:48:41Z</time></trkpt><trkpt lat="46.107367033743806" lon="13.22819767054111"><ele>133.0</ele><time>2026-04-04T13:48:42Z</time></trkpt><trkpt lat="46.10733882638758" lon="13.228086015278937"><ele>133.0</ele><time>2026-04-04T13:48:43Z</time></trkpt><trkpt lat="46.10732465306306" lon="13.227986313460566"><ele>133.0</ele><time>2026-04-04T13:48:44Z</time></trkpt><trkpt lat="46.107310254074754" lon="13.227895815662016"><ele>133.0</ele><time>2026-04-04T13:48:45Z</time></trkpt><trkpt lat="46.107282153963595" lon="13.227725002312487"><ele>133.0</ele><time>2026-04-04T13:48:47Z</time></trkpt><trkpt lat="46.107268074440995" lon="13.227634915813944"><ele>133.20000000000002</ele><time>2026-04-04T13:48:49Z</time></trkpt><trkpt lat="46.107250221325714" lon="13.227493037399547"><ele>133.4</ele><time>2026-04-04T13:48:52Z</time></trkpt><trkpt lat="46.107246086398796" lon="13.227348238911535"><ele>133.60000000000002</ele><time>2026-04-04T13:48:54Z</time></trkpt><trkpt lat="46.10723021548533" lon="13.22719521654368"><ele>133.8</ele><time>2026-04-04T13:48:56Z</time></trkpt><trkpt lat="46.10721089857477" lon="13.22700803396596"><ele>134.0</ele><time>2026-04-04T13:48:58Z</time></trkpt><trkpt lat="46.107205804310446" lon="13.226837814321323"><ele>133.6</ele><time>2026-04-04T13:48:59Z</time></trkpt><trkpt lat="46.10717271770231" lon="13.226678376534995"><ele>133.2</ele><time>2026-04-04T13:49:00Z</time></trkpt><trkpt lat="46.10714532795648" lon="13.226538814889858"><ele>132.79999999999998</ele><time>2026-04-04T13:49:01Z</time></trkpt><trkpt lat="46.10711457969097" lon="13.226389620739493"><ele>132.4</ele><time>2026-04-04T13:49:02Z</time></trkpt><trkpt lat="46.10708213047069" lon="13.226238450658235"><ele>132.0</ele><time>2026-04-04T13:49:03Z</time></trkpt><trkpt lat="46.10705661358313" lon="13.226062030354287"><ele>131.75</ele><time>2026-04-04T13:49:04Z</time></trkpt><trkpt lat="46.10704185365607" lon="13.225902227829199"><ele>131.5</ele><time>2026-04-04T13:49:05Z</time></trkpt><trkpt lat="46.107020812250305" lon="13.225716465939554"><ele>131.25</ele><time>2026-04-04T13:49:06Z</time></trkpt><trkpt lat="46.1069852154842" lon="13.225490580361733"><ele>131.0</ele><time>2026-04-04T13:49:07Z</time></trkpt><trkpt lat="46.106954177008774" lon="13.225225571134056"><ele>131.0</ele><time>2026-04-04T13:49:08Z</time></trkpt><trkpt lat="46.10691967113212" lon="13.224975188166292"><ele>131.0</ele><time>2026-04-04T13:49:09Z</time></trkpt><trkpt lat="46.106891020112144" lon="13.224763046794385"><ele>131.0</ele><time>2026-04-04T13:49:10Z</time></trkpt><trkpt lat="46.10686308999427" lon="13.224576998352102"><ele>131.25</ele><time>2026-04-04T13:49:11Z</time></trkpt><trkpt lat="46.10683063214833" lon="13.22440450836098"><ele>131.5</ele><time>2026-04-04T13:49:12Z</time></trkpt><trkpt lat="46.10679605728365" lon="13.224249326962724"><ele>131.75</ele><time>2026-04-04T13:49:13Z</time></trkpt><trkpt lat="46.1067630907681" lon="13.224102039009527"><ele>132.0</ele><time>2026-04-04T13:49:14Z</time></trkpt><trkpt lat="46.10672219710904" lon="13.223946839187743"><ele>132.25</ele><time>2026-04-04T13:49:15Z</time></trkpt><trkpt lat="46.10667571524514" lon="13.223789064401187"><ele>132.5</ele><time>2026-04-04T13:49:16Z</time></trkpt><trkpt lat="46.10663106832138" lon="13.22362233121925"><ele>132.75</ele><time>2026-04-04T13:49:17Z</time></trkpt><trkpt lat="46.10658794180241" lon="13.223455599516743"><ele>133.0</ele><time>2026-04-04T13:49:18Z</time></trkpt><trkpt lat="46.10654002158121" lon="13.223282720974442"><ele>132.5</ele><time>2026-04-04T13:49:19Z</time></trkpt><trkpt lat="46.106487702937144" lon="13.223099199279297"><ele>132.0</ele><time>2026-04-04T13:49:20Z</time></trkpt><trkpt lat="46.10643964966088" lon="13.222929582653116"><ele>131.5</ele><time>2026-04-04T13:49:21Z</time></trkpt><trkpt lat="46.106394358157786" lon="13.222772726267094"><ele>131.0</ele><time>2026-04-04T13:49:22Z</time></trkpt><trkpt lat="46.10636312866257" lon="13.222624498770385"><ele>131.0</ele><time>2026-04-04T13:49:23Z</time></trkpt><trkpt lat="46.10633144011681" lon="13.222492701608383"><ele>131.0</ele><time>2026-04-04T13:49:24Z</time></trkpt><trkpt lat="46.10630700543201" lon="13.22235894857986"><ele>131.0</ele><time>2026-04-04T13:49:25Z</time></trkpt><trkpt lat="46.10626176702244" lon="13.222244045307725"><ele>131.0</ele><time>2026-04-04T13:49:26Z</time></trkpt><trkpt lat="46.10621650902314" lon="13.222133829150517"><ele>131.0</ele><time>2026-04-04T13:49:27Z</time></trkpt><trkpt lat="46.10617577625735" lon="13.221992604571462"><ele>131.0</ele><time>2026-04-04T13:49:28Z</time></trkpt><trkpt lat="46.10613346205927" lon="13.22184162203899"><ele>131.0</ele><time>2026-04-04T13:49:29Z</time></trkpt><trkpt lat="46.106090431505244" lon="13.22168550690169"><ele>131.0</ele><time>2026-04-04T13:49:30Z</time></trkpt><trkpt lat="46.106051466720274" lon="13.221546878746791"><ele>131.0</ele><time>2026-04-04T13:49:31Z</time></trkpt><trkpt lat="46.10601680150011" lon="13.221424107020544"><ele>131.0</ele><time>2026-04-04T13:49:32Z</time></trkpt><trkpt lat="46.105985862335935" lon="13.221315016100867"><ele>131.6</ele><time>2026-04-04T13:49:33Z</time></trkpt><trkpt lat="46.10594998930268" lon="13.221159319505109"><ele>132.2</ele><time>2026-04-04T13:49:35Z</time></trkpt><trkpt lat="46.10593042166336" lon="13.221034968809155"><ele>132.8</ele><time>2026-04-04T13:49:37Z</time></trkpt><trkpt lat="46.10593067226456" lon="13.220943007505388"><ele>133.4</ele><time>2026-04-04T13:49:38Z</time></trkpt><trkpt lat="46.105964092894084" lon="13.220828949996692"><ele>134.0</ele><time>2026-04-04T13:49:39Z</time></trkpt><trkpt lat="46.106083455013824" lon="13.220749320594786"><ele>134.0</ele><time>2026-04-04T13:49:40Z</time></trkpt><trkpt lat="46.10618210907786" lon="13.22066898969958"><ele>134.0</ele><time>2026-04-04T13:49:41Z</time></trkpt><trkpt lat="46.10629717272041" lon="13.220606752527777"><ele>134.0</ele><time>2026-04-04T13:49:42Z</time></trkpt><trkpt lat="46.10641761886469" lon="13.220539045442804"><ele>134.0</ele><time>2026-04-04T13:49:43Z</time></trkpt><trkpt lat="46.106520405105236" lon="13.22047641721769"><ele>133.75</ele><time>2026-04-04T13:49:44Z</time></trkpt><trkpt lat="46.10662143627045" lon="13.22041089650008"><ele>133.5</ele><time>2026-04-04T13:49:45Z</time></trkpt><trkpt lat="46.106734266615405" lon="13.22033966556176"><ele>133.25</ele><time>2026-04-04T13:49:46Z</time></trkpt><trkpt lat="46.106852151590644" lon="13.220260377555057"><ele>133.0</ele><time>2026-04-04T13:49:47Z</time></trkpt><trkpt lat="46.10696242705856" lon="13.220184788836098"><ele>133.0</ele><time>2026-04-04T13:49:48Z</time></trkpt><trkpt lat="46.10705971070126" lon="13.22012059711529"><ele>133.0</ele><time>2026-04-04T13:49:49Z</time></trkpt><trkpt lat="46.10715154986612" lon="13.220063854115804"><ele>133.0</ele><time>2026-04-04T13:49:50Z</time></trkpt><trkpt lat="46.10724170004432" lon="13.220006400117514"><ele>133.0</ele><time>2026-04-04T13:49:51Z</time></trkpt><trkpt lat="46.10732414131847" lon="13.21995182463043"><ele>133.0</ele><time>2026-04-04T13:49:52Z</time></trkpt><trkpt lat="46.10739917345992" lon="13.219904877456882"><ele>133.0</ele><time>2026-04-04T13:49:53Z</time></trkpt><trkpt lat="46.10747575672291" lon="13.219857693850892"><ele>133.0</ele><time>2026-04-04T13:49:54Z</time></trkpt><trkpt lat="46.10756532442152" lon="13.219799917847002"><ele>133.0</ele><time>2026-04-04T13:49:55Z</time></trkpt><trkpt lat="46.10765846832534" lon="13.219742453671762"><ele>133.0</ele><time>2026-04-04T13:49:56Z</time></trkpt><trkpt lat="46.10774766695245" lon="13.219686242453127"><ele>133.0</ele><time>2026-04-04T13:49:57Z</time></trkpt><trkpt lat="46.10783519767947" lon="13.219629990033196"><ele>133.20000000000002</ele><time>2026-04-04T13:49:58Z</time></trkpt><trkpt lat="46.107924339469164" lon="13.219575537636732"><ele>133.4</ele><time>2026-04-04T13:49:59Z</time></trkpt><trkpt lat="46.10801185341413" lon="13.219519291727778"><ele>133.60000000000002</ele><time>2026-04-04T13:50:00Z</time></trkpt><trkpt lat="46.10809414128685" lon="13.219470092116119"><ele>133.8</ele><time>2026-04-04T13:50:01Z</time></trkpt><trkpt lat="46.10818534817694" lon="13.219426974069263"><ele>134.0</ele><time>2026-04-04T13:50:02Z</time></trkpt><trkpt lat="46.10828487040797" lon="13.21936519028191"><ele>134.25</ele><time>2026-04-04T13:50:03Z</time></trkpt><trkpt lat="46.10838571859796" lon="13.219304207295579"><ele>134.5</ele><time>2026-04-04T13:50:04Z</time></trkpt><trkpt lat="46.10848628105369" lon="13.219240755166563"><ele>134.75</ele><time>2026-04-04T13:50:05Z</time></trkpt><trkpt lat="46.10859093270959" lon="13.219173971514701"><ele>135.0</ele><time>2026-04-04T13:50:06Z</time></trkpt><trkpt lat="46.10870233803668" lon="13.219103098641025"><ele>135.0</ele><time>2026-04-04T13:50:07Z</time></trkpt><trkpt lat="46.108814729774885" lon="13.219035582690513"><ele>135.0</ele><time>2026-04-04T13:50:08Z</time></trkpt><trkpt lat="46.10892868577055" lon="13.218964037808814"><ele>135.0</ele><time>2026-04-04T13:50:09Z</time></trkpt><trkpt lat="46.10903819949972" lon="13.218897119413663"><ele>135.0</ele><time>2026-04-04T13:50:10Z</time></trkpt><trkpt lat="46.10913696737227" lon="13.218837553930335"><ele>135.4</ele><time>2026-04-04T13:50:11Z</time></trkpt><trkpt lat="46.109226892760894" lon="13.218778351418202"><ele>135.8</ele><time>2026-04-04T13:50:12Z</time></trkpt><trkpt lat="46.109311341191216" lon="13.218724869047032"><ele>136.2</ele><time>2026-04-04T13:50:13Z</time></trkpt><trkpt lat="46.10939970315855" lon="13.218667698859749"><ele>136.6</ele><time>2026-04-04T13:50:14Z</time></trkpt><trkpt lat="46.10948735911587" lon="13.218614276134598"><ele>137.0</ele><time>2026-04-04T13:50:15Z</time></trkpt><trkpt lat="46.109578124938835" lon="13.218558408682986"><ele>137.0</ele><time>2026-04-04T13:50:16Z</time></trkpt><trkpt lat="46.10965560100887" lon="13.21850614668977"><ele>137.0</ele><time>2026-04-04T13:50:17Z</time></trkpt><trkpt lat="46.109732293282825" lon="13.218456053931424"><ele>137.0</ele><time>2026-04-04T13:50:18Z</time></trkpt><trkpt lat="46.10980489423303" lon="13.218413441449668"><ele>137.0</ele><time>2026-04-04T13:50:19Z</time></trkpt><trkpt lat="46.109879161050486" lon="13.218377436323026"><ele>137.0</ele><time>2026-04-04T13:50:20Z</time></trkpt><trkpt lat="46.109943317555995" lon="13.218347232121083"><ele>137.0</ele><time>2026-04-04T13:50:21Z</time></trkpt><trkpt lat="46.11000719707544" lon="13.218328424311148"><ele>136.83333333333331</ele><time>2026-04-04T13:50:22Z</time></trkpt><trkpt lat="46.11008046442456" lon="13.218321156805388"><ele>136.66666666666666</ele><time>2026-04-04T13:50:23Z</time></trkpt><trkpt lat="46.110150382745225" lon="13.218310309878667"><ele>136.5</ele><time>2026-04-04T13:50:24Z</time></trkpt><trkpt lat="46.11022480841889" lon="13.218241777695205"><ele>136.33333333333334</ele><time>2026-04-04T13:50:25Z</time></trkpt><trkpt lat="46.11028555171406" lon="13.218136940117532"><ele>136.16666666666669</ele><time>2026-04-04T13:50:26Z</time></trkpt><trkpt lat="46.110365211764545" lon="13.218029015540017"><ele>136.0</ele><time>2026-04-04T13:50:27Z</time></trkpt><trkpt lat="46.11047582766818" lon="13.217955231602108"><ele>135.75</ele><time>2026-04-04T13:50:28Z</time></trkpt><trkpt lat="46.11060576851234" lon="13.217874988933463"><ele>135.5</ele><time>2026-04-04T13:50:29Z</time></trkpt><trkpt lat="46.11071421267241" lon="13.217803577082885"><ele>135.25</ele><time>2026-04-04T13:50:30Z</time></trkpt><trkpt lat="46.11080685627528" lon="13.217736237369643"><ele>135.0</ele><time>2026-04-04T13:50:31Z</time></trkpt><trkpt lat="46.11089304634291" lon="13.217673934710806"><ele>134.8</ele><time>2026-04-04T13:50:32Z</time></trkpt><trkpt lat="46.11097628434855" lon="13.217614371912461"><ele>134.6</ele><time>2026-04-04T13:50:33Z</time></trkpt><trkpt lat="46.11106078353158" lon="13.217552572617794"><ele>134.4</ele><time>2026-04-04T13:50:34Z</time></trkpt><trkpt lat="46.11114918872647" lon="13.21748500499763"><ele>134.2</ele><time>2026-04-04T13:50:35Z</time></trkpt><trkpt lat="46.11124298588505" lon="13.217403747427001"><ele>134.0</ele><time>2026-04-04T13:50:36Z</time></trkpt><trkpt lat="46.11133665117321" lon="13.217307835608526"><ele>133.83333333333331</ele><time>2026-04-04T13:50:37Z</time></trkpt><trkpt lat="46.11141467783866" lon="13.217218834955982"><ele>133.66666666666666</ele><time>2026-04-04T13:50:38Z</time></trkpt><trkpt lat="46.111481322105995" lon="13.217142246348544"><ele>133.5</ele><time>2026-04-04T13:50:39Z</time></trkpt><trkpt lat="46.111540923869605" lon="13.217086661834745"><ele>133.33333333333334</ele><time>2026-04-04T13:50:40Z</time></trkpt><trkpt lat="46.11160604448371" lon="13.217041141455276"><ele>133.16666666666669</ele><time>2026-04-04T13:50:41Z</time></trkpt><trkpt lat="46.1116550381503" lon="13.216977907715064"><ele>133.0</ele><time>2026-04-04T13:50:42Z</time></trkpt><trkpt lat="46.11177771178765" lon="13.217019439027096"><ele>133.0</ele><time>2026-04-04T13:50:43Z</time></trkpt><trkpt lat="46.11188112646723" lon="13.217023302357555"><ele>133.0</ele><time>2026-04-04T13:50:44Z</time></trkpt><trkpt lat="46.11198953510693" lon="13.216972134902445"><ele>133.0</ele><time>2026-04-04T13:50:45Z</time></trkpt><trkpt lat="46.112096802388706" lon="13.216881657746235"><ele>133.0</ele><time>2026-04-04T13:50:46Z</time></trkpt><trkpt lat="46.11221778828154" lon="13.216757976793883"><ele>133.0</ele><time>2026-04-04T13:50:47Z</time></trkpt><trkpt lat="46.112341881580356" lon="13.216659622140334"><ele>133.0</ele><time>2026-04-04T13:50:48Z</time></trkpt><trkpt lat="46.112448751705884" lon="13.216583328406513"><ele>133.0</ele><time>2026-04-04T13:50:49Z</time></trkpt><trkpt lat="46.11259970514005" lon="13.216632269826517"><ele>133.0</ele><time>2026-04-04T13:50:50Z</time></trkpt><trkpt lat="46.11277809705388" lon="13.216656344903438"><ele>134.0</ele><time>2026-04-04T13:50:51Z</time></trkpt><trkpt lat="46.11297416515077" lon="13.216682091138782"><ele>135.0</ele><time>2026-04-04T13:50:52Z</time></trkpt><trkpt lat="46.1131768222461" lon="13.216715949745891"><ele>136.0</ele><time>2026-04-04T13:50:53Z</time></trkpt><trkpt lat="46.11337335001356" lon="13.21674691910479"><ele>137.0</ele><time>2026-04-04T13:50:54Z</time></trkpt><trkpt lat="46.11354285449396" lon="13.21676841298737"><ele>138.0</ele><time>2026-04-04T13:50:55Z</time></trkpt><trkpt lat="46.11369025436669" lon="13.216787164416122"><ele>139.0</ele><time>2026-04-04T13:50:56Z</time></trkpt><trkpt lat="46.11382314048835" lon="13.216806281137941"><ele>139.0</ele><time>2026-04-04T13:50:57Z</time></trkpt><trkpt lat="46.113942912905635" lon="13.21682454808655"><ele>139.0</ele><time>2026-04-04T13:50:58Z</time></trkpt><trkpt lat="46.114052680137895" lon="13.2168400836482"><ele>139.0</ele><time>2026-04-04T13:50:59Z</time></trkpt><trkpt lat="46.11415809288916" lon="13.216854949288773"><ele>139.0</ele><time>2026-04-04T13:51:00Z</time></trkpt><trkpt lat="46.11427830780954" lon="13.216872752525298"><ele>139.25</ele><time>2026-04-04T13:51:01Z</time></trkpt><trkpt lat="46.11440638472427" lon="13.21688878270972"><ele>139.5</ele><time>2026-04-04T13:51:02Z</time></trkpt><trkpt lat="46.11453883585257" lon="13.216905613877367"><ele>139.75</ele><time>2026-04-04T13:51:03Z</time></trkpt><trkpt lat="46.11467926887366" lon="13.216928245604704"><ele>140.0</ele><time>2026-04-04T13:51:04Z</time></trkpt><trkpt lat="46.11482610447451" lon="13.21694945679838"><ele>140.25</ele><time>2026-04-04T13:51:05Z</time></trkpt><trkpt lat="46.11496347590307" lon="13.21696674302064"><ele>140.5</ele><time>2026-04-04T13:51:06Z</time></trkpt><trkpt lat="46.115089308854415" lon="13.216983306990592"><ele>140.75</ele><time>2026-04-04T13:51:07Z</time></trkpt><trkpt lat="46.1152074653644" lon="13.216999939997805"><ele>141.0</ele><time>2026-04-04T13:51:08Z</time></trkpt><trkpt lat="46.1153210687568" lon="13.21701473289913"><ele>141.0</ele><time>2026-04-04T13:51:09Z</time></trkpt><trkpt lat="46.115427912942614" lon="13.21702893498664"><ele>141.0</ele><time>2026-04-04T13:51:10Z</time></trkpt><trkpt lat="46.11552910981709" lon="13.21704300442479"><ele>141.0</ele><time>2026-04-04T13:51:11Z</time></trkpt><trkpt lat="46.11561846835215" lon="13.217055373378008"><ele>141.0</ele><time>2026-04-04T13:51:12Z</time></trkpt><trkpt lat="46.11569162862474" lon="13.217066533325912"><ele>141.0</ele><time>2026-04-04T13:51:13Z</time></trkpt><trkpt lat="46.11575558394344" lon="13.217078025127236"><ele>141.0</ele><time>2026-04-04T13:51:14Z</time></trkpt><trkpt lat="46.11585214643098" lon="13.217101335452996"><ele>141.0</ele><time>2026-04-04T13:51:16Z</time></trkpt><trkpt lat="46.11595219338487" lon="13.217105372487634"><ele>141.0</ele><time>2026-04-04T13:51:18Z</time></trkpt><trkpt lat="46.115979902730636" lon="13.216931512561933"><ele>141.0</ele><time>2026-04-04T13:51:19Z</time></trkpt><trkpt lat="46.11597967363265" lon="13.216814987938513"><ele>141.0</ele><time>2026-04-04T13:51:20Z</time></trkpt><trkpt lat="46.115974199598085" lon="13.21668569766393"><ele>141.0</ele><time>2026-04-04T13:51:21Z</time></trkpt><trkpt lat="46.115973286624985" lon="13.216530345131348"><ele>141.0</ele><time>2026-04-04T13:51:22Z</time></trkpt><trkpt lat="46.11597420130427" lon="13.216362308308236"><ele>141.0</ele><time>2026-04-04T13:51:23Z</time></trkpt><trkpt lat="46.11597534373395" lon="13.216218146813475"><ele>141.0</ele><time>2026-04-04T13:51:24Z</time></trkpt><trkpt lat="46.11597727470512" lon="13.216076842551463"><ele>141.0</ele><time>2026-04-04T13:51:25Z</time></trkpt><trkpt lat="46.115980307885934" lon="13.215912564959476"><ele>141.0</ele><time>2026-04-04T13:51:26Z</time></trkpt><trkpt lat="46.11598285709415" lon="13.215755904229393"><ele>140.8</ele><time>2026-04-04T13:51:27Z</time></trkpt><trkpt lat="46.115991331234945" lon="13.215615502673057"><ele>140.6</ele><time>2026-04-04T13:51:28Z</time></trkpt><trkpt lat="46.116007001088846" lon="13.215483644548886"><ele>140.4</ele><time>2026-04-04T13:51:29Z</time></trkpt><trkpt lat="46.11602443261763" lon="13.215338307172047"><ele>140.2</ele><time>2026-04-04T13:51:30Z</time></trkpt><trkpt lat="46.116049457718816" lon="13.215178411351255"><ele>140.0</ele><time>2026-04-04T13:51:31Z</time></trkpt><trkpt lat="46.1160916941132" lon="13.215002663065748"><ele>139.33333333333331</ele><time>2026-04-04T13:51:32Z</time></trkpt><trkpt lat="46.116147693331996" lon="13.214806385540143"><ele>138.66666666666666</ele><time>2026-04-04T13:51:33Z</time></trkpt><trkpt lat="46.11620870754719" lon="13.214597292486587"><ele>138.0</ele><time>2026-04-04T13:51:34Z</time></trkpt><trkpt lat="46.116268974971305" lon="13.214388550635368"><ele>138.0</ele><time>2026-04-04T13:51:35Z</time></trkpt><trkpt lat="46.11631807836121" lon="13.214210112674973"><ele>138.0</ele><time>2026-04-04T13:51:36Z</time></trkpt><trkpt lat="46.11634782710713" lon="13.214018981169108"><ele>138.0</ele><time>2026-04-04T13:51:37Z</time></trkpt><trkpt lat="46.11635602700859" lon="13.213797282480295"><ele>138.0</ele><time>2026-04-04T13:51:38Z</time></trkpt><trkpt lat="46.11634817462398" lon="13.213579674658005"><ele>138.25</ele><time>2026-04-04T13:51:39Z</time></trkpt><trkpt lat="46.11633939158432" lon="13.213385786556529"><ele>138.5</ele><time>2026-04-04T13:51:40Z</time></trkpt><trkpt lat="46.11633535534264" lon="13.213206870557576"><ele>138.75</ele><time>2026-04-04T13:51:41Z</time></trkpt><trkpt lat="46.11634709796566" lon="13.213040240003757"><ele>139.0</ele><time>2026-04-04T13:51:42Z</time></trkpt><trkpt lat="46.11636616152504" lon="13.212875918912681"><ele>139.0</ele><time>2026-04-04T13:51:43Z</time></trkpt><trkpt lat="46.116387568371444" lon="13.21270797745991"><ele>139.0</ele><time>2026-04-04T13:51:44Z</time></trkpt><trkpt lat="46.11640889237785" lon="13.212561596555705"><ele>139.0</ele><time>2026-04-04T13:51:45Z</time></trkpt><trkpt lat="46.11642989987413" lon="13.2124295377672"><ele>139.0</ele><time>2026-04-04T13:51:46Z</time></trkpt><trkpt lat="46.11644466988257" lon="13.21231584306993"><ele>139.0</ele><time>2026-04-04T13:51:47Z</time></trkpt><trkpt lat="46.11645521284644" lon="13.212206679319241"><ele>138.8</ele><time>2026-04-04T13:51:48Z</time></trkpt><trkpt lat="46.116473428467316" lon="13.21202798917415"><ele>138.60000000000002</ele><time>2026-04-04T13:51:49Z</time></trkpt><trkpt lat="46.11647026362455" lon="13.211864727263924"><ele>138.4</ele><time>2026-04-04T13:51:50Z</time></trkpt><trkpt lat="46.11645347305631" lon="13.211719167651642"><ele>138.20000000000002</ele><time>2026-04-04T13:51:51Z</time></trkpt><trkpt lat="46.1164305848876" lon="13.21160069510606"><ele>138.0</ele><time>2026-04-04T13:51:52Z</time></trkpt><trkpt lat="46.11640889635364" lon="13.211493758396019"><ele>138.14285714285714</ele><time>2026-04-04T13:51:53Z</time></trkpt><trkpt lat="46.116390948861834" lon="13.21139469258441"><ele>138.2857142857143</ele><time>2026-04-04T13:51:54Z</time></trkpt><trkpt lat="46.11637034882761" lon="13.21130883020625"><ele>138.42857142857144</ele><time>2026-04-04T13:51:55Z</time></trkpt><trkpt lat="46.116350456829416" lon="13.21121865612844"><ele>138.57142857142858</ele><time>2026-04-04T13:51:56Z</time></trkpt><trkpt lat="46.11633666123108" lon="13.211118315036225"><ele>138.71428571428572</ele><time>2026-04-04T13:51:57Z</time></trkpt><trkpt lat="46.11631119306038" lon="13.211013822749171"><ele>138.85714285714286</ele><time>2026-04-04T13:51:58Z</time></trkpt><trkpt lat="46.11625774542222" lon="13.210930393155428"><ele>139.0</ele><time>2026-04-04T13:51:59Z</time></trkpt><trkpt lat="46.116173462104676" lon="13.21088106150943"><ele>139.0</ele><time>2026-04-04T13:52:00Z</time></trkpt><trkpt lat="46.11609065572129" lon="13.21084179005438"><ele>139.0</ele><time>2026-04-04T13:52:01Z</time></trkpt><trkpt lat="46.116020350188506" lon="13.210824498030457"><ele>139.0</ele><time>2026-04-04T13:52:02Z</time></trkpt><trkpt lat="46.11593059725955" lon="13.210785608370665"><ele>139.0</ele><time>2026-04-04T13:52:04Z</time></trkpt><trkpt lat="46.115868288199856" lon="13.210676585450752"><ele>139.0</ele><time>2026-04-04T13:52:07Z</time></trkpt><trkpt lat="46.11582813879175" lon="13.210545818246972"><ele>139.0</ele><time>2026-04-04T13:52:10Z</time></trkpt><trkpt lat="46.11579592908478" lon="13.210467571304859"><ele>138.5</ele><time>2026-04-04T13:52:11Z</time></trkpt><trkpt lat="46.11575061769959" lon="13.210373155096304"><ele>138.0</ele><time>2026-04-04T13:52:12Z</time></trkpt><trkpt lat="46.11571205108486" lon="13.210269025168909"><ele>137.5</ele><time>2026-04-04T13:52:13Z</time></trkpt><trkpt lat="46.115694602692436" lon="13.210172643033205"><ele>137.0</ele><time>2026-04-04T13:52:14Z</time></trkpt><trkpt lat="46.11569237342366" lon="13.210062047972352"><ele>136.5</ele><time>2026-04-04T13:52:15Z</time></trkpt><trkpt lat="46.115688359854815" lon="13.20993672843817"><ele>136.0</ele><time>2026-04-04T13:52:16Z</time></trkpt><trkpt lat="46.11567329619471" lon="13.209806875441595"><ele>136.0</ele><time>2026-04-04T13:52:17Z</time></trkpt><trkpt lat="46.1156646468514" lon="13.209681331822948"><ele>136.0</ele><time>2026-04-04T13:52:18Z</time></trkpt><trkpt lat="46.11565642547702" lon="13.209564276481053"><ele>136.0</ele><time>2026-04-04T13:52:19Z</time></trkpt><trkpt lat="46.11564634610298" lon="13.209438461434653"><ele>136.0</ele><time>2026-04-04T13:52:20Z</time></trkpt><trkpt lat="46.11563627739964" lon="13.209311305842833"><ele>136.0</ele><time>2026-04-04T13:52:21Z</time></trkpt><trkpt lat="46.11562823654026" lon="13.209189292470672"><ele>136.0</ele><time>2026-04-04T13:52:22Z</time></trkpt><trkpt lat="46.11561964375181" lon="13.20907396316085"><ele>135.83333333333334</ele><time>2026-04-04T13:52:23Z</time></trkpt><trkpt lat="46.115606749446485" lon="13.208933446521929"><ele>135.66666666666669</ele><time>2026-04-04T13:52:24Z</time></trkpt><trkpt lat="46.11559772188457" lon="13.208799579468007"><ele>135.5</ele><time>2026-04-04T13:52:25Z</time></trkpt><trkpt lat="46.115588900966316" lon="13.2086750049549"><ele>135.33333333333334</ele><time>2026-04-04T13:52:26Z</time></trkpt><trkpt lat="46.11557956151114" lon="13.20856231832911"><ele>135.16666666666666</ele><time>2026-04-04T13:52:27Z</time></trkpt><trkpt lat="46.115569914613644" lon="13.208464788329406"><ele>135.0</ele><time>2026-04-04T13:52:28Z</time></trkpt><trkpt lat="46.11556605059777" lon="13.208362029562803"><ele>135.0</ele><time>2026-04-04T13:52:29Z</time></trkpt><trkpt lat="46.115557690698225" lon="13.208244777560255"><ele>135.0</ele><time>2026-04-04T13:52:30Z</time></trkpt><trkpt lat="46.11555584793439" lon="13.208111685780118"><ele>135.0</ele><time>2026-04-04T13:52:31Z</time></trkpt><trkpt lat="46.11552667101487" lon="13.207976817726903"><ele>135.0</ele><time>2026-04-04T13:52:32Z</time></trkpt><trkpt lat="46.115510247591516" lon="13.207835630194886"><ele>135.0</ele><time>2026-04-04T13:52:33Z</time></trkpt><trkpt lat="46.11549573268843" lon="13.207683425648032"><ele>134.8</ele><time>2026-04-04T13:52:34Z</time></trkpt><trkpt lat="46.11548935243585" lon="13.207534774219727"><ele>134.6</ele><time>2026-04-04T13:52:35Z</time></trkpt><trkpt lat="46.11548125834642" lon="13.207396014678272"><ele>134.4</ele><time>2026-04-04T13:52:36Z</time></trkpt><trkpt lat="46.11547532332264" lon="13.207252343128387"><ele>134.2</ele><time>2026-04-04T13:52:37Z</time></trkpt><trkpt lat="46.115467104735224" lon="13.207109401390943"><ele>134.0</ele><time>2026-04-04T13:52:38Z</time></trkpt><trkpt lat="46.115482317669596" lon="13.206964650713658"><ele>134.0</ele><time>2026-04-04T13:52:39Z</time></trkpt><trkpt lat="46.11548503655585" lon="13.206835499914181"><ele>134.0</ele><time>2026-04-04T13:52:40Z</time></trkpt><trkpt lat="46.115481549553195" lon="13.206688985066199"><ele>134.0</ele><time>2026-04-04T13:52:41Z</time></trkpt><trkpt lat="46.115492603886516" lon="13.206550686071024"><ele>134.0</ele><time>2026-04-04T13:52:42Z</time></trkpt><trkpt lat="46.11550061784662" lon="13.20641224478817"><ele>134.0</ele><time>2026-04-04T13:52:43Z</time></trkpt><trkpt lat="46.115511922507366" lon="13.20627231185278"><ele>133.8</ele><time>2026-04-04T13:52:44Z</time></trkpt><trkpt lat="46.115508846700386" lon="13.206129641975304"><ele>133.60000000000002</ele><time>2026-04-04T13:52:45Z</time></trkpt><trkpt lat="46.11550432060739" lon="13.205983357430378"><ele>133.4</ele><time>2026-04-04T13:52:46Z</time></trkpt><trkpt lat="46.11548649611374" lon="13.205828488352074"><ele>133.20000000000002</ele><time>2026-04-04T13:52:47Z</time></trkpt><trkpt lat="46.1154636443533" lon="13.205672988398037"><ele>133.0</ele><time>2026-04-04T13:52:48Z</time></trkpt><trkpt lat="46.1154314263098" lon="13.20551605450402"><ele>133.5</ele><time>2026-04-04T13:52:49Z</time></trkpt><trkpt lat="46.11538802804753" lon="13.205374211344656"><ele>134.0</ele><time>2026-04-04T13:52:50Z</time></trkpt><trkpt lat="46.11534349700973" lon="13.205232140803627"><ele>134.5</ele><time>2026-04-04T13:52:51Z</time></trkpt><trkpt lat="46.115301357738225" lon="13.205078541273322"><ele>135.0</ele><time>2026-04-04T13:52:52Z</time></trkpt><trkpt lat="46.11528550667992" lon="13.204848556985535"><ele>134.75</ele><time>2026-04-04T13:52:53Z</time></trkpt><trkpt lat="46.11523687099159" lon="13.204644895327588"><ele>134.5</ele><time>2026-04-04T13:52:54Z</time></trkpt><trkpt lat="46.11519575823967" lon="13.20446345325295"><ele>134.25</ele><time>2026-04-04T13:52:55Z</time></trkpt><trkpt lat="46.115154384287194" lon="13.204299618335181"><ele>134.0</ele><time>2026-04-04T13:52:56Z</time></trkpt><trkpt lat="46.115115790819075" lon="13.204136856952628"><ele>133.25</ele><time>2026-04-04T13:52:57Z</time></trkpt><trkpt lat="46.1150852306785" lon="13.203970597195102"><ele>132.5</ele><time>2026-04-04T13:52:58Z</time></trkpt><trkpt lat="46.11503183299983" lon="13.203798209977867"><ele>131.75</ele><time>2026-04-04T13:52:59Z</time></trkpt><trkpt lat="46.11499536349737" lon="13.203630559535345"><ele>131.0</ele><time>2026-04-04T13:53:00Z</time></trkpt><trkpt lat="46.11494768006855" lon="13.20344842786271"><ele>131.33333333333331</ele><time>2026-04-04T13:53:01Z</time></trkpt><trkpt lat="46.114892877931716" lon="13.203241725220822"><ele>131.66666666666666</ele><time>2026-04-04T13:53:02Z</time></trkpt><trkpt lat="46.11482872274765" lon="13.202972507795252"><ele>132.0</ele><time>2026-04-04T13:53:03Z</time></trkpt><trkpt lat="46.114768999572796" lon="13.202695301900793"><ele>132.0</ele><time>2026-04-04T13:53:04Z</time></trkpt><trkpt lat="46.11470872434037" lon="13.20246250529292"><ele>132.0</ele><time>2026-04-04T13:53:05Z</time></trkpt><trkpt lat="46.11465262667074" lon="13.202258420143854"><ele>132.0</ele><time>2026-04-04T13:53:06Z</time></trkpt><trkpt lat="46.11459977888592" lon="13.202069407316289"><ele>131.75</ele><time>2026-04-04T13:53:07Z</time></trkpt><trkpt lat="46.11454298616991" lon="13.201897688510323"><ele>131.5</ele><time>2026-04-04T13:53:08Z</time></trkpt><trkpt lat="46.114487496711625" lon="13.201731759309975"><ele>131.25</ele><time>2026-04-04T13:53:09Z</time></trkpt><trkpt lat="46.11442998958144" lon="13.201550076498906"><ele>131.0</ele><time>2026-04-04T13:53:10Z</time></trkpt><trkpt lat="46.11436952096384" lon="13.201352446401582"><ele>131.0</ele><time>2026-04-04T13:53:11Z</time></trkpt><trkpt lat="46.11430569512398" lon="13.201140211832906"><ele>131.0</ele><time>2026-04-04T13:53:12Z</time></trkpt><trkpt lat="46.114242564628945" lon="13.20092229239773"><ele>131.0</ele><time>2026-04-04T13:53:13Z</time></trkpt><trkpt lat="46.11416556157027" lon="13.20069841149193"><ele>130.66666666666666</ele><time>2026-04-04T13:53:14Z</time></trkpt><trkpt lat="46.1140904359057" lon="13.20048011326638"><ele>130.33333333333334</ele><time>2026-04-04T13:53:15Z</time></trkpt><trkpt lat="46.11402011473056" lon="13.200285158684833"><ele>130.0</ele><time>2026-04-04T13:53:16Z</time></trkpt><trkpt lat="46.11395770452945" lon="13.200108102872871"><ele>130.0</ele><time>2026-04-04T13:53:17Z</time></trkpt><trkpt lat="46.11389961091609" lon="13.199947806134624"><ele>130.0</ele><time>2026-04-04T13:53:18Z</time></trkpt><trkpt lat="46.113838402070655" lon="13.199778644791465"><ele>130.0</ele><time>2026-04-04T13:53:19Z</time></trkpt><trkpt lat="46.11376873331742" lon="13.19959465447691"><ele>130.0</ele><time>2026-04-04T13:53:20Z</time></trkpt><trkpt lat="46.11368641959919" lon="13.199382783179038"><ele>129.33333333333334</ele><time>2026-04-04T13:53:21Z</time></trkpt><trkpt lat="46.113594825146336" lon="13.199153591503306"><ele>128.66666666666666</ele><time>2026-04-04T13:53:22Z</time></trkpt><trkpt lat="46.11351236300418" lon="13.198937654954545"><ele>128.0</ele><time>2026-04-04T13:53:23Z</time></trkpt><trkpt lat="46.11343927098748" lon="13.198750516885767"><ele>128.25</ele><time>2026-04-04T13:53:24Z</time></trkpt><trkpt lat="46.113374345362324" lon="13.19858072922197"><ele>128.5</ele><time>2026-04-04T13:53:25Z</time></trkpt><trkpt lat="46.11331335527897" lon="13.19842816447958"><ele>128.75</ele><time>2026-04-04T13:53:26Z</time></trkpt><trkpt lat="46.113254547946305" lon="13.198285732563516"><ele>129.0</ele><time>2026-04-04T13:53:27Z</time></trkpt><trkpt lat="46.11319846526701" lon="13.19815448034513"><ele>129.0</ele><time>2026-04-04T13:53:28Z</time></trkpt><trkpt lat="46.11314817059842" lon="13.198029966053914"><ele>129.0</ele><time>2026-04-04T13:53:29Z</time></trkpt><trkpt lat="46.11311446663257" lon="13.197924805633441"><ele>129.0</ele><time>2026-04-04T13:53:30Z</time></trkpt><trkpt lat="46.11309903906325" lon="13.197826679249632"><ele>129.0</ele><time>2026-04-04T13:53:31Z</time></trkpt><trkpt lat="46.11310724978148" lon="13.19773054609371"><ele>129.0</ele><time>2026-04-04T13:53:32Z</time></trkpt><trkpt lat="46.11316981453293" lon="13.197584972294749"><ele>129.0</ele><time>2026-04-04T13:53:34Z</time></trkpt><trkpt lat="46.11324186561848" lon="13.197504310784153"><ele>128.75</ele><time>2026-04-04T13:53:36Z</time></trkpt><trkpt lat="46.11332088948832" lon="13.197373498784081"><ele>128.5</ele><time>2026-04-04T13:53:38Z</time></trkpt><trkpt lat="46.11337330205708" lon="13.197263828844214"><ele>128.25</ele><time>2026-04-04T13:53:39Z</time></trkpt><trkpt lat="46.11349925233081" lon="13.197127677695606"><ele>128.0</ele><time>2026-04-04T13:53:40Z</time></trkpt><trkpt lat="46.113657189243064" lon="13.196946052916202"><ele>129.0</ele><time>2026-04-04T13:53:41Z</time></trkpt><trkpt lat="46.11385650254039" lon="13.196737307681824"><ele>130.0</ele><time>2026-04-04T13:53:42Z</time></trkpt><trkpt lat="46.11409637558967" lon="13.19649701004555"><ele>127.5</ele><time>2026-04-04T13:53:43Z</time></trkpt><trkpt lat="46.114338105060064" lon="13.1962603363657"><ele>125.0</ele><time>2026-04-04T13:53:44Z</time></trkpt><trkpt lat="46.11454204876912" lon="13.196061082019453"><ele>125.0</ele><time>2026-04-04T13:53:45Z</time></trkpt><trkpt lat="46.114720524557626" lon="13.195879529840527"><ele>125.0</ele><time>2026-04-04T13:53:46Z</time></trkpt><trkpt lat="46.11488353031344" lon="13.195712192715444"><ele>125.0</ele><time>2026-04-04T13:53:47Z</time></trkpt><trkpt lat="46.11503955140766" lon="13.19555602060508"><ele>125.0</ele><time>2026-04-04T13:53:48Z</time></trkpt><trkpt lat="46.1152026161073" lon="13.19539314441638"><ele>125.0</ele><time>2026-04-04T13:53:49Z</time></trkpt><trkpt lat="46.11537393027246" lon="13.195219237352019"><ele>125.0</ele><time>2026-04-04T13:53:50Z</time></trkpt><trkpt lat="46.115547592475714" lon="13.195043807342374"><ele>125.0</ele><time>2026-04-04T13:53:51Z</time></trkpt><trkpt lat="46.11570505852527" lon="13.194881812389"><ele>125.0</ele><time>2026-04-04T13:53:52Z</time></trkpt><trkpt lat="46.11584484607648" lon="13.194742030563598"><ele>125.0</ele><time>2026-04-04T13:53:53Z</time></trkpt><trkpt lat="46.11597307620159" lon="13.194612573985587"><ele>130.33333333333331</ele><time>2026-04-04T13:53:54Z</time></trkpt><trkpt lat="46.116105441658966" lon="13.194475684491197"><ele>135.66666666666666</ele><time>2026-04-04T13:53:55Z</time></trkpt><trkpt lat="46.116240746027835" lon="13.194340889240971"><ele>141.0</ele><time>2026-04-04T13:53:56Z</time></trkpt><trkpt lat="46.11637012209751" lon="13.194210649076123"><ele>141.0</ele><time>2026-04-04T13:53:57Z</time></trkpt><trkpt lat="46.116494134842114" lon="13.194095516971448"><ele>141.0</ele><time>2026-04-04T13:53:58Z</time></trkpt><trkpt lat="46.11661575998555" lon="13.193991812871866"><ele>141.0</ele><time>2026-04-04T13:53:59Z</time></trkpt><trkpt lat="46.11675646989744" lon="13.193886910577113"><ele>141.0</ele><time>2026-04-04T13:54:00Z</time></trkpt><trkpt lat="46.11691096255245" lon="13.193776291971234"><ele>142.33333333333334</ele><time>2026-04-04T13:54:01Z</time></trkpt><trkpt lat="46.1170726174476" lon="13.193661872884618"><ele>143.66666666666669</ele><time>2026-04-04T13:54:02Z</time></trkpt><trkpt lat="46.11725243014212" lon="13.193531440022912"><ele>145.0</ele><time>2026-04-04T13:54:03Z</time></trkpt><trkpt lat="46.117452363525366" lon="13.193386074421353"><ele>145.0</ele><time>2026-04-04T13:54:04Z</time></trkpt><trkpt lat="46.11767966686096" lon="13.19322411488996"><ele>145.0</ele><time>2026-04-04T13:54:05Z</time></trkpt><trkpt lat="46.11791496139204" lon="13.193059512485602"><ele>145.33333333333334</ele><time>2026-04-04T13:54:06Z</time></trkpt><trkpt lat="46.11812295820092" lon="13.192913303369352"><ele>145.66666666666666</ele><time>2026-04-04T13:54:07Z</time></trkpt><trkpt lat="46.1183075818444" lon="13.192783154057562"><ele>146.0</ele><time>2026-04-04T13:54:08Z</time></trkpt><trkpt lat="46.11848207525662" lon="13.192656430387093"><ele>146.0</ele><time>2026-04-04T13:54:09Z</time></trkpt><trkpt lat="46.118673284125904" lon="13.192518054419633"><ele>146.0</ele><time>2026-04-04T13:54:10Z</time></trkpt><trkpt lat="46.118887582342055" lon="13.192367181482041"><ele>150.33333333333331</ele><time>2026-04-04T13:54:11Z</time></trkpt><trkpt lat="46.119091457198664" lon="13.19221791325246"><ele>154.66666666666666</ele><time>2026-04-04T13:54:12Z</time></trkpt><trkpt lat="46.119272459061605" lon="13.19209217912243"><ele>159.0</ele><time>2026-04-04T13:54:13Z</time></trkpt><trkpt lat="46.11942957181627" lon="13.19198201691789"><ele>159.0</ele><time>2026-04-04T13:54:14Z</time></trkpt><trkpt lat="46.11957191417594" lon="13.191875058772887"><ele>159.0</ele><time>2026-04-04T13:54:15Z</time></trkpt><trkpt lat="46.119727777820565" lon="13.191749103611848"><ele>159.0</ele><time>2026-04-04T13:54:16Z</time></trkpt><trkpt lat="46.11988704076095" lon="13.191609581333257"><ele>158.33333333333334</ele><time>2026-04-04T13:54:17Z</time></trkpt><trkpt lat="46.120046927607845" lon="13.19145026130859"><ele>157.66666666666669</ele><time>2026-04-04T13:54:18Z</time></trkpt><trkpt lat="46.120183422370545" lon="13.191288794100542"><ele>157.0</ele><time>2026-04-04T13:54:19Z</time></trkpt><trkpt lat="46.12030424289672" lon="13.19114156744706"><ele>157.0</ele><time>2026-04-04T13:54:20Z</time></trkpt><trkpt lat="46.12041030055571" lon="13.191017103242787"><ele>157.0</ele><time>2026-04-04T13:54:21Z</time></trkpt><trkpt lat="46.120508946746796" lon="13.1908950910833"><ele>157.0</ele><time>2026-04-04T13:54:22Z</time></trkpt><trkpt lat="46.120601954483625" lon="13.190772937827505"><ele>157.0</ele><time>2026-04-04T13:54:23Z</time></trkpt><trkpt lat="46.12069778734561" lon="13.190662276868302"><ele>157.2</ele><time>2026-04-04T13:54:24Z</time></trkpt><trkpt lat="46.120790803840556" lon="13.19054889574084"><ele>157.39999999999998</ele><time>2026-04-04T13:54:25Z</time></trkpt><trkpt lat="46.12087517481059" lon="13.190436713195368"><ele>157.60000000000002</ele><time>2026-04-04T13:54:26Z</time></trkpt><trkpt lat="46.120951032469186" lon="13.19033820745212"><ele>157.8</ele><time>2026-04-04T13:54:27Z</time></trkpt><trkpt lat="46.12101930393105" lon="13.190255039590102"><ele>158.0</ele><time>2026-04-04T13:54:28Z</time></trkpt><trkpt lat="46.12108019551827" lon="13.19017767245579"><ele>158.0</ele><time>2026-04-04T13:54:29Z</time></trkpt><trkpt lat="46.121127687224735" lon="13.190111814421446"><ele>158.0</ele><time>2026-04-04T13:54:30Z</time></trkpt><trkpt lat="46.12125901239212" lon="13.189946023365291"><ele>158.0</ele><time>2026-04-04T13:54:32Z</time></trkpt><trkpt lat="46.121308571758455" lon="13.18987331405439"><ele>158.0</ele><time>2026-04-04T13:54:33Z</time></trkpt><trkpt lat="46.1214042826197" lon="13.189770047345494"><ele>158.0</ele><time>2026-04-04T13:54:35Z</time></trkpt><trkpt lat="46.12150928519046" lon="13.18970588991348"><ele>158.5</ele><time>2026-04-04T13:54:37Z</time></trkpt><trkpt lat="46.1215781220955" lon="13.189645119599662"><ele>159.0</ele><time>2026-04-04T13:54:38Z</time></trkpt><trkpt lat="46.121665789182494" lon="13.189537531736711"><ele>159.5</ele><time>2026-04-04T13:54:39Z</time></trkpt><trkpt lat="46.121759195098726" lon="13.189382369235254"><ele>160.0</ele><time>2026-04-04T13:54:40Z</time></trkpt><trkpt lat="46.12187789516907" lon="13.189228459699997"><ele>160.0</ele><time>2026-04-04T13:54:41Z</time></trkpt><trkpt lat="46.12200650249351" lon="13.189074016720964"><ele>160.0</ele><time>2026-04-04T13:54:42Z</time></trkpt><trkpt lat="46.122109966317154" lon="13.18894156794722"><ele>160.0</ele><time>2026-04-04T13:54:43Z</time></trkpt><trkpt lat="46.12220664315127" lon="13.188835261103195"><ele>160.0</ele><time>2026-04-04T13:54:44Z</time></trkpt><trkpt lat="46.122292265226946" lon="13.188729890362765"><ele>160.0</ele><time>2026-04-04T13:54:45Z</time></trkpt><trkpt lat="46.12238685815992" lon="13.188614153272718"><ele>160.0</ele><time>2026-04-04T13:54:46Z</time></trkpt><trkpt lat="46.12249778126748" lon="13.188482094598685"><ele>160.0</ele><time>2026-04-04T13:54:47Z</time></trkpt><trkpt lat="46.122597109715045" lon="13.18836135927539"><ele>160.0</ele><time>2026-04-04T13:54:48Z</time></trkpt><trkpt lat="46.12268364721577" lon="13.188257134173922"><ele>160.75</ele><time>2026-04-04T13:54:49Z</time></trkpt><trkpt lat="46.122764878716346" lon="13.188161935920657"><ele>161.5</ele><time>2026-04-04T13:54:50Z</time></trkpt><trkpt lat="46.12285352122568" lon="13.188065254554527"><ele>162.25</ele><time>2026-04-04T13:54:51Z</time></trkpt><trkpt lat="46.12295777420583" lon="13.187935550563036"><ele>163.0</ele><time>2026-04-04T13:54:52Z</time></trkpt><trkpt lat="46.12305785046529" lon="13.187816985655665"><ele>163.0</ele><time>2026-04-04T13:54:53Z</time></trkpt><trkpt lat="46.12314345387292" lon="13.187717699595364"><ele>163.0</ele><time>2026-04-04T13:54:54Z</time></trkpt><trkpt lat="46.12322440326883" lon="13.187638988486619"><ele>163.0</ele><time>2026-04-04T13:54:55Z</time></trkpt><trkpt lat="46.12330237052641" lon="13.187567608916138"><ele>163.0</ele><time>2026-04-04T13:54:56Z</time></trkpt><trkpt lat="46.12338956558299" lon="13.18750962759471"><ele>163.0</ele><time>2026-04-04T13:54:57Z</time></trkpt><trkpt lat="46.1234858801531" lon="13.187454556624612"><ele>163.16666666666669</ele><time>2026-04-04T13:54:58Z</time></trkpt><trkpt lat="46.12358153706825" lon="13.187406312879993"><ele>163.33333333333334</ele><time>2026-04-04T13:54:59Z</time></trkpt><trkpt lat="46.12366037181671" lon="13.187371036454008"><ele>163.5</ele><time>2026-04-04T13:55:00Z</time></trkpt><trkpt lat="46.123730295727626" lon="13.187337457283768"><ele>163.66666666666666</ele><time>2026-04-04T13:55:01Z</time></trkpt><trkpt lat="46.12380340301454" lon="13.187305387754355"><ele>163.83333333333331</ele><time>2026-04-04T13:55:02Z</time></trkpt><trkpt lat="46.12388396846593" lon="13.187278016793483"><ele>164.0</ele><time>2026-04-04T13:55:03Z</time></trkpt><trkpt lat="46.123944760690186" lon="13.18725054269468"><ele>164.0</ele><time>2026-04-04T13:55:04Z</time></trkpt><trkpt lat="46.1240141210171" lon="13.187199382796255"><ele>164.0</ele><time>2026-04-04T13:55:06Z</time></trkpt><trkpt lat="46.12412960722857" lon="13.187151834058977"><ele>164.0</ele><time>2026-04-04T13:55:10Z</time></trkpt><trkpt lat="46.124207580106734" lon="13.187133852230769"><ele>164.0</ele><time>2026-04-04T13:55:11Z</time></trkpt><trkpt lat="46.124277013657604" lon="13.187121974702501"><ele>164.0</ele><time>2026-04-04T13:55:12Z</time></trkpt><trkpt lat="46.12436959501063" lon="13.187009328980652"><ele>164.14285714285714</ele><time>2026-04-04T13:55:14Z</time></trkpt><trkpt lat="46.124398457852536" lon="13.186914577052809"><ele>164.28571428571428</ele><time>2026-04-04T13:55:15Z</time></trkpt><trkpt lat="46.12442355374047" lon="13.186808036213934"><ele>164.42857142857144</ele><time>2026-04-04T13:55:16Z</time></trkpt><trkpt lat="46.12446443670573" lon="13.186709719132109"><ele>164.57142857142856</ele><time>2026-04-04T13:55:17Z</time></trkpt><trkpt lat="46.124515113647874" lon="13.186633593856138"><ele>164.71428571428572</ele><time>2026-04-04T13:55:18Z</time></trkpt><trkpt lat="46.124566246102695" lon="13.186564161072335"><ele>164.85714285714286</ele><time>2026-04-04T13:55:19Z</time></trkpt><trkpt lat="46.12461445241873" lon="13.1864954000625"><ele>165.0</ele><time>2026-04-04T13:55:20Z</time></trkpt><trkpt lat="46.1246728415001" lon="13.186414544702506"><ele>165.0</ele><time>2026-04-04T13:55:21Z</time></trkpt><trkpt lat="46.124743049012565" lon="13.186314877968288"><ele>165.0</ele><time>2026-04-04T13:55:22Z</time></trkpt><trkpt lat="46.12481622475431" lon="13.186205533965662"><ele>165.0</ele><time>2026-04-04T13:55:23Z</time></trkpt><trkpt lat="46.12488370633243" lon="13.186107150663938"><ele>165.0</ele><time>2026-04-04T13:55:24Z</time></trkpt><trkpt lat="46.1249376821301" lon="13.186018556042796"><ele>165.0</ele><time>2026-04-04T13:55:25Z</time></trkpt><trkpt lat="46.12499315093652" lon="13.18593292125594"><ele>164.8</ele><time>2026-04-04T13:55:26Z</time></trkpt><trkpt lat="46.12505094248394" lon="13.185827005264029"><ele>164.6</ele><time>2026-04-04T13:55:27Z</time></trkpt><trkpt lat="46.12510063689894" lon="13.185685840310708"><ele>164.39999999999998</ele><time>2026-04-04T13:55:28Z</time></trkpt><trkpt lat="46.12514277513255" lon="13.185547505991517"><ele>164.2</ele><time>2026-04-04T13:55:29Z</time></trkpt><trkpt lat="46.125183202559946" lon="13.185411955588032"><ele>164.0</ele><time>2026-04-04T13:55:30Z</time></trkpt><trkpt lat="46.12522413502858" lon="13.185259044911332"><ele>163.75</ele><time>2026-04-04T13:55:31Z</time></trkpt><trkpt lat="46.125263444281906" lon="13.185117163690007"><ele>163.5</ele><time>2026-04-04T13:55:32Z</time></trkpt><trkpt lat="46.12529681429404" lon="13.184976391697706"><ele>163.25</ele><time>2026-04-04T13:55:33Z</time></trkpt><trkpt lat="46.12535010574987" lon="13.184789147055362"><ele>163.0</ele><time>2026-04-04T13:55:34Z</time></trkpt><trkpt lat="46.12545155502613" lon="13.184539207260961"><ele>163.0</ele><time>2026-04-04T13:55:35Z</time></trkpt><trkpt lat="46.12557530817385" lon="13.184230074123912"><ele>163.0</ele><time>2026-04-04T13:55:36Z</time></trkpt><trkpt lat="46.1257021273086" lon="13.183922370819882"><ele>163.66666666666669</ele><time>2026-04-04T13:55:37Z</time></trkpt><trkpt lat="46.1257975946432" lon="13.183658211260088"><ele>164.33333333333334</ele><time>2026-04-04T13:55:38Z</time></trkpt><trkpt lat="46.125898117832854" lon="13.183420487895862"><ele>165.0</ele><time>2026-04-04T13:55:39Z</time></trkpt><trkpt lat="46.12600366029408" lon="13.183164416261539"><ele>165.5</ele><time>2026-04-04T13:55:40Z</time></trkpt><trkpt lat="46.12612588349685" lon="13.182866793105823"><ele>166.0</ele><time>2026-04-04T13:55:41Z</time></trkpt><trkpt lat="46.12626440854638" lon="13.182535287523622"><ele>167.33333333333334</ele><time>2026-04-04T13:55:42Z</time></trkpt><trkpt lat="46.12638632704878" lon="13.182261405908113"><ele>168.66666666666666</ele><time>2026-04-04T13:55:43Z</time></trkpt><trkpt lat="46.12648701604449" lon="13.182016517728094"><ele>170.0</ele><time>2026-04-04T13:55:44Z</time></trkpt><trkpt lat="46.1265784437282" lon="13.181791135474507"><ele>170.33333333333331</ele><time>2026-04-04T13:55:45Z</time></trkpt><trkpt lat="46.126668806026274" lon="13.181565243766862"><ele>170.66666666666666</ele><time>2026-04-04T13:55:46Z</time></trkpt><trkpt lat="46.126764953976206" lon="13.1813311600103"><ele>171.0</ele><time>2026-04-04T13:55:47Z</time></trkpt><trkpt lat="46.12685449785753" lon="13.18111297741877"><ele>171.25</ele><time>2026-04-04T13:55:48Z</time></trkpt><trkpt lat="46.12693306672821" lon="13.18092839597723"><ele>171.5</ele><time>2026-04-04T13:55:49Z</time></trkpt><trkpt lat="46.12700447045353" lon="13.180766048619327"><ele>171.75</ele><time>2026-04-04T13:55:50Z</time></trkpt><trkpt lat="46.127069637994836" lon="13.180619888888085"><ele>172.0</ele><time>2026-04-04T13:55:51Z</time></trkpt><trkpt lat="46.127138637589844" lon="13.180461840215962"><ele>172.5</ele><time>2026-04-04T13:55:52Z</time></trkpt><trkpt lat="46.12720885119431" lon="13.18028962848644"><ele>173.0</ele><time>2026-04-04T13:55:53Z</time></trkpt><trkpt lat="46.12728424855771" lon="13.180106374072341"><ele>173.5</ele><time>2026-04-04T13:55:54Z</time></trkpt><trkpt lat="46.12735860523388" lon="13.179913998273708"><ele>174.0</ele><time>2026-04-04T13:55:55Z</time></trkpt><trkpt lat="46.127438059522554" lon="13.179701868892781"><ele>175.66666666666666</ele><time>2026-04-04T13:55:56Z</time></trkpt><trkpt lat="46.12752393369707" lon="13.179487067995906"><ele>177.33333333333331</ele><time>2026-04-04T13:55:57Z</time></trkpt><trkpt lat="46.12761915457599" lon="13.179262822382471"><ele>179.0</ele><time>2026-04-04T13:55:58Z</time></trkpt><trkpt lat="46.12771517683651" lon="13.179029470140534"><ele>180.66666666666666</ele><time>2026-04-04T13:55:59Z</time></trkpt><trkpt lat="46.12781176768726" lon="13.17878752870776"><ele>182.33333333333334</ele><time>2026-04-04T13:56:00Z</time></trkpt><trkpt lat="46.12790909614611" lon="13.178549808595095"><ele>184.0</ele><time>2026-04-04T13:56:01Z</time></trkpt><trkpt lat="46.128006014487916" lon="13.178313432452034"><ele>185.0</ele><time>2026-04-04T13:56:02Z</time></trkpt><trkpt lat="46.128105253067275" lon="13.178070654854205"><ele>186.0</ele><time>2026-04-04T13:56:03Z</time></trkpt><trkpt lat="46.12820715861034" lon="13.177821262828619"><ele>187.0</ele><time>2026-04-04T13:56:04Z</time></trkpt><trkpt lat="46.12830333933584" lon="13.177590965033069"><ele>187.66666666666669</ele><time>2026-04-04T13:56:05Z</time></trkpt><trkpt lat="46.128385844404285" lon="13.177384968001654"><ele>188.33333333333334</ele><time>2026-04-04T13:56:06Z</time></trkpt><trkpt lat="46.12846803370979" lon="13.177174214993665"><ele>189.0</ele><time>2026-04-04T13:56:07Z</time></trkpt><trkpt lat="46.128568206844925" lon="13.176932174472128"><ele>189.66666666666666</ele><time>2026-04-04T13:56:08Z</time></trkpt><trkpt lat="46.12867593289568" lon="13.176684352362102"><ele>190.33333333333331</ele><time>2026-04-04T13:56:09Z</time></trkpt><trkpt lat="46.1287963238667" lon="13.176437697619427"><ele>191.0</ele><time>2026-04-04T13:56:10Z</time></trkpt><trkpt lat="46.128934114382666" lon="13.176190813197378"><ele>192.33333333333331</ele><time>2026-04-04T13:56:11Z</time></trkpt><trkpt lat="46.12908737578506" lon="13.175956574624717"><ele>193.66666666666666</ele><time>2026-04-04T13:56:12Z</time></trkpt><trkpt lat="46.12925131995133" lon="13.175751496948433"><ele>195.0</ele><time>2026-04-04T13:56:13Z</time></trkpt><trkpt lat="46.12942479280434" lon="13.175563531375365"><ele>195.0</ele><time>2026-04-04T13:56:14Z</time></trkpt><trkpt lat="46.12960373558763" lon="13.175399128060432"><ele>195.0</ele><time>2026-04-04T13:56:15Z</time></trkpt><trkpt lat="46.12978419547639" lon="13.17527177042228"><ele>195.0</ele><time>2026-04-04T13:56:16Z</time></trkpt><trkpt lat="46.12996802530767" lon="13.175171908796546"><ele>195.33333333333331</ele><time>2026-04-04T13:56:17Z</time></trkpt><trkpt lat="46.13016460519803" lon="13.175082860112672"><ele>195.66666666666666</ele><time>2026-04-04T13:56:18Z</time></trkpt><trkpt lat="46.130375479070175" lon="13.175006581707352"><ele>196.0</ele><time>2026-04-04T13:56:19Z</time></trkpt><trkpt lat="46.13058723996296" lon="13.1749552633169"><ele>197.0</ele><time>2026-04-04T13:56:20Z</time></trkpt><trkpt lat="46.13078623169739" lon="13.174945678481333"><ele>198.0</ele><time>2026-04-04T13:56:21Z</time></trkpt><trkpt lat="46.13096166356238" lon="13.174954944802732"><ele>199.0</ele><time>2026-04-04T13:56:22Z</time></trkpt><trkpt lat="46.13111857710574" lon="13.174958005453533"><ele>199.0</ele><time>2026-04-04T13:56:23Z</time></trkpt><trkpt lat="46.13125833176883" lon="13.174955791127424"><ele>199.0</ele><time>2026-04-04T13:56:24Z</time></trkpt><trkpt lat="46.13138744269957" lon="13.174945717572767"><ele>199.0</ele><time>2026-04-04T13:56:25Z</time></trkpt><trkpt lat="46.1315151467996" lon="13.174923914056254"><ele>199.0</ele><time>2026-04-04T13:56:26Z</time></trkpt><trkpt lat="46.131655862141216" lon="13.17489726664424"><ele>199.25</ele><time>2026-04-04T13:56:27Z</time></trkpt><trkpt lat="46.1318000294465" lon="13.174869891748937"><ele>199.5</ele><time>2026-04-04T13:56:28Z</time></trkpt><trkpt lat="46.131946828984944" lon="13.174828917487053"><ele>199.75</ele><time>2026-04-04T13:56:29Z</time></trkpt><trkpt lat="46.13209331125374" lon="13.174779202183743"><ele>200.0</ele><time>2026-04-04T13:56:30Z</time></trkpt><trkpt lat="46.13223049262528" lon="13.174737334717657"><ele>200.0</ele><time>2026-04-04T13:56:31Z</time></trkpt><trkpt lat="46.13235573787526" lon="13.174694594299844"><ele>200.0</ele><time>2026-04-04T13:56:32Z</time></trkpt><trkpt lat="46.13247581496022" lon="13.17464068658691"><ele>200.0</ele><time>2026-04-04T13:56:33Z</time></trkpt><trkpt lat="46.13260268460856" lon="13.174532990209304"><ele>200.0</ele><time>2026-04-04T13:56:34Z</time></trkpt><trkpt lat="46.13272391081204" lon="13.174376491407168"><ele>200.66666666666669</ele><time>2026-04-04T13:56:35Z</time></trkpt><trkpt lat="46.1328303338895" lon="13.174180936571362"><ele>201.33333333333331</ele><time>2026-04-04T13:56:36Z</time></trkpt><trkpt lat="46.132928335289066" lon="13.173962961278397"><ele>202.0</ele><time>2026-04-04T13:56:37Z</time></trkpt><trkpt lat="46.13302958989046" lon="13.173740357154399"><ele>200.66666666666666</ele><time>2026-04-04T13:56:38Z</time></trkpt><trkpt lat="46.13314410355008" lon="13.173529011425941"><ele>199.33333333333331</ele><time>2026-04-04T13:56:39Z</time></trkpt><trkpt lat="46.133259587529345" lon="13.173306769693374"><ele>198.0</ele><time>2026-04-04T13:56:40Z</time></trkpt><trkpt lat="46.1333553176518" lon="13.173093613132087"><ele>197.0</ele><time>2026-04-04T13:56:41Z</time></trkpt><trkpt lat="46.13345152193851" lon="13.172898020663583"><ele>196.0</ele><time>2026-04-04T13:56:42Z</time></trkpt><trkpt lat="46.13355766382203" lon="13.172701866099327"><ele>195.0</ele><time>2026-04-04T13:56:43Z</time></trkpt><trkpt lat="46.13368015997021" lon="13.172483276063051"><ele>195.0</ele><time>2026-04-04T13:56:44Z</time></trkpt><trkpt lat="46.133807819867016" lon="13.17227217149766"><ele>195.0</ele><time>2026-04-04T13:56:45Z</time></trkpt><trkpt lat="46.13393150762985" lon="13.172097471004104"><ele>195.0</ele><time>2026-04-04T13:56:46Z</time></trkpt><trkpt lat="46.134056168815704" lon="13.17194711926843"><ele>194.66666666666669</ele><time>2026-04-04T13:56:47Z</time></trkpt><trkpt lat="46.13418208518452" lon="13.171810848885952"><ele>194.33333333333334</ele><time>2026-04-04T13:56:48Z</time></trkpt><trkpt lat="46.13431554430683" lon="13.17167580182811"><ele>194.0</ele><time>2026-04-04T13:56:49Z</time></trkpt><trkpt lat="46.13448416867047" lon="13.171534313145962"><ele>195.0</ele><time>2026-04-04T13:56:50Z</time></trkpt><trkpt lat="46.134681868794914" lon="13.171396386257769"><ele>196.0</ele><time>2026-04-04T13:56:51Z</time></trkpt><trkpt lat="46.13489131102374" lon="13.171256097682862"><ele>194.66666666666666</ele><time>2026-04-04T13:56:52Z</time></trkpt><trkpt lat="46.13508478501763" lon="13.171121131985222"><ele>193.33333333333331</ele><time>2026-04-04T13:56:53Z</time></trkpt><trkpt lat="46.1352616918831" lon="13.170996502999326"><ele>192.0</ele><time>2026-04-04T13:56:54Z</time></trkpt><trkpt lat="46.13542668034006" lon="13.17088029989774"><ele>192.0</ele><time>2026-04-04T13:56:55Z</time></trkpt><trkpt lat="46.135583564105104" lon="13.170766156896455"><ele>192.0</ele><time>2026-04-04T13:56:56Z</time></trkpt><trkpt lat="46.13573509852052" lon="13.170659152342257"><ele>192.0</ele><time>2026-04-04T13:56:57Z</time></trkpt><trkpt lat="46.13589105490948" lon="13.170544032916352"><ele>192.0</ele><time>2026-04-04T13:56:58Z</time></trkpt><trkpt lat="46.1360634886854" lon="13.170421548249363"><ele>192.0</ele><time>2026-04-04T13:56:59Z</time></trkpt><trkpt lat="46.13624173563777" lon="13.170288522114545"><ele>192.0</ele><time>2026-04-04T13:57:00Z</time></trkpt><trkpt lat="46.13641467807711" lon="13.170162162585578"><ele>190.66666666666666</ele><time>2026-04-04T13:57:01Z</time></trkpt><trkpt lat="46.136573544414155" lon="13.170041760194582"><ele>189.33333333333331</ele><time>2026-04-04T13:57:02Z</time></trkpt><trkpt lat="46.136713516763514" lon="13.169904073099342"><ele>188.0</ele><time>2026-04-04T13:57:03Z</time></trkpt><trkpt lat="46.136834531527875" lon="13.169736639586953"><ele>188.0</ele><time>2026-04-04T13:57:04Z</time></trkpt><trkpt lat="46.13694497357632" lon="13.169540162139104"><ele>188.0</ele><time>2026-04-04T13:57:05Z</time></trkpt><trkpt lat="46.13705246912022" lon="13.169314862364775"><ele>188.0</ele><time>2026-04-04T13:57:06Z</time></trkpt><trkpt lat="46.13715144636527" lon="13.169058846515467"><ele>190.0</ele><time>2026-04-04T13:57:07Z</time></trkpt><trkpt lat="46.13724553384045" lon="13.168763698553795"><ele>192.0</ele><time>2026-04-04T13:57:08Z</time></trkpt><trkpt lat="46.137344608146776" lon="13.16844788455964"><ele>190.33333333333334</ele><time>2026-04-04T13:57:09Z</time></trkpt><trkpt lat="46.1374450661824" lon="13.168161067152534"><ele>188.66666666666669</ele><time>2026-04-04T13:57:10Z</time></trkpt><trkpt lat="46.137554945637696" lon="13.167907102307058"><ele>187.0</ele><time>2026-04-04T13:57:11Z</time></trkpt><trkpt lat="46.13768612873973" lon="13.167654380402544"><ele>187.0</ele><time>2026-04-04T13:57:12Z</time></trkpt><trkpt lat="46.137837190872126" lon="13.167399071264665"><ele>187.0</ele><time>2026-04-04T13:57:13Z</time></trkpt><trkpt lat="46.137993029334936" lon="13.16717007335521"><ele>187.66666666666669</ele><time>2026-04-04T13:57:14Z</time></trkpt><trkpt lat="46.138135813147215" lon="13.166967312780223"><ele>188.33333333333334</ele><time>2026-04-04T13:57:15Z</time></trkpt><trkpt lat="46.13828199044364" lon="13.166774020356543"><ele>189.0</ele><time>2026-04-04T13:57:16Z</time></trkpt><trkpt lat="46.13843064052768" lon="13.166602712845203"><ele>187.33333333333334</ele><time>2026-04-04T13:57:17Z</time></trkpt><trkpt lat="46.138582737845475" lon="13.166460838844843"><ele>185.66666666666669</ele><time>2026-04-04T13:57:18Z</time></trkpt><trkpt lat="46.138743512028434" lon="13.16633239700133"><ele>184.0</ele><time>2026-04-04T13:57:19Z</time></trkpt><trkpt lat="46.13891819346606" lon="13.1661944485427"><ele>182.66666666666669</ele><time>2026-04-04T13:57:20Z</time></trkpt><trkpt lat="46.13909546631393" lon="13.166049783078314"><ele>181.33333333333334</ele><time>2026-04-04T13:57:21Z</time></trkpt><trkpt lat="46.13925210404812" lon="13.165897548961036"><ele>180.0</ele><time>2026-04-04T13:57:22Z</time></trkpt><trkpt lat="46.13939651269191" lon="13.16570518744123"><ele>180.33333333333334</ele><time>2026-04-04T13:57:23Z</time></trkpt><trkpt lat="46.139531048408934" lon="13.165474055829101"><ele>180.66666666666669</ele><time>2026-04-04T13:57:24Z</time></trkpt><trkpt lat="46.13965606204517" lon="13.165201238752065"><ele>181.0</ele><time>2026-04-04T13:57:25Z</time></trkpt><trkpt lat="46.13976745022129" lon="13.164912204707017"><ele>180.33333333333334</ele><time>2026-04-04T13:57:26Z</time></trkpt><trkpt lat="46.13986197523276" lon="13.164651740528113"><ele>179.66666666666666</ele><time>2026-04-04T13:57:27Z</time></trkpt><trkpt lat="46.1399624765661" lon="13.164396225694821"><ele>179.0</ele><time>2026-04-04T13:57:28Z</time></trkpt><trkpt lat="46.140073388046645" lon="13.164136445175178"><ele>179.33333333333331</ele><time>2026-04-04T13:57:29Z</time></trkpt><trkpt lat="46.1402115656638" lon="13.163905040010551"><ele>179.66666666666666</ele><time>2026-04-04T13:57:30Z</time></trkpt><trkpt lat="46.14036808982118" lon="13.163703869536258"><ele>180.0</ele><time>2026-04-04T13:57:31Z</time></trkpt><trkpt lat="46.14054018343938" lon="13.163521422576286"><ele>180.0</ele><time>2026-04-04T13:57:32Z</time></trkpt><trkpt lat="46.1407058782868" lon="13.163367050150162"><ele>180.0</ele><time>2026-04-04T13:57:33Z</time></trkpt><trkpt lat="46.14085765012416" lon="13.163228959769995"><ele>180.0</ele><time>2026-04-04T13:57:34Z</time></trkpt><trkpt lat="46.140999511870525" lon="13.163097756123669"><ele>180.33333333333334</ele><time>2026-04-04T13:57:35Z</time></trkpt><trkpt lat="46.141132915395964" lon="13.162968522319801"><ele>180.66666666666669</ele><time>2026-04-04T13:57:36Z</time></trkpt><trkpt lat="46.14125976946832" lon="13.162843906198399"><ele>181.0</ele><time>2026-04-04T13:57:37Z</time></trkpt><trkpt lat="46.14138998787423" lon="13.162720901520563"><ele>181.0</ele><time>2026-04-04T13:57:38Z</time></trkpt><trkpt lat="46.14152000181974" lon="13.162588878622614"><ele>181.0</ele><time>2026-04-04T13:57:39Z</time></trkpt><trkpt lat="46.14165543101273" lon="13.162452833553948"><ele>181.0</ele><time>2026-04-04T13:57:40Z</time></trkpt><trkpt lat="46.14180126314896" lon="13.162323874458956"><ele>181.0</ele><time>2026-04-04T13:57:41Z</time></trkpt><trkpt lat="46.141949096776045" lon="13.162180993167015"><ele>181.0</ele><time>2026-04-04T13:57:42Z</time></trkpt><trkpt lat="46.14210083564581" lon="13.162033315948381"><ele>181.0</ele><time>2026-04-04T13:57:43Z</time></trkpt><trkpt lat="46.142256739994785" lon="13.161883351078359"><ele>182.0</ele><time>2026-04-04T13:57:44Z</time></trkpt><trkpt lat="46.14242807003537" lon="13.161720158404906"><ele>183.0</ele><time>2026-04-04T13:57:45Z</time></trkpt><trkpt lat="46.142614481787405" lon="13.16154358582502"><ele>184.0</ele><time>2026-04-04T13:57:46Z</time></trkpt><trkpt lat="46.142803262045035" lon="13.16136716737559"><ele>184.0</ele><time>2026-04-04T13:57:47Z</time></trkpt><trkpt lat="46.14299013756075" lon="13.161190410706773"><ele>184.0</ele><time>2026-04-04T13:57:48Z</time></trkpt><trkpt lat="46.143181183750336" lon="13.161007953460686"><ele>184.0</ele><time>2026-04-04T13:57:49Z</time></trkpt><trkpt lat="46.14337753190799" lon="13.160819059721211"><ele>184.0</ele><time>2026-04-04T13:57:50Z</time></trkpt><trkpt lat="46.1435536037547" lon="13.160647229115956"><ele>184.0</ele><time>2026-04-04T13:57:51Z</time></trkpt><trkpt lat="46.143721483896556" lon="13.160484444476701"><ele>184.0</ele><time>2026-04-04T13:57:52Z</time></trkpt><trkpt lat="46.1438858511662" lon="13.160332551845368"><ele>184.0</ele><time>2026-04-04T13:57:53Z</time></trkpt><trkpt lat="46.14406871171716" lon="13.1601618017301"><ele>184.0</ele><time>2026-04-04T13:57:54Z</time></trkpt><trkpt lat="46.14425859130211" lon="13.159981706110248"><ele>184.0</ele><time>2026-04-04T13:57:55Z</time></trkpt><trkpt lat="46.14444023391708" lon="13.159809185520226"><ele>184.0</ele><time>2026-04-04T13:57:56Z</time></trkpt><trkpt lat="46.14461032185093" lon="13.159646394755443"><ele>184.0</ele><time>2026-04-04T13:57:57Z</time></trkpt><trkpt lat="46.14477371884276" lon="13.159492081963307"><ele>184.66666666666669</ele><time>2026-04-04T13:57:58Z</time></trkpt><trkpt lat="46.144935184427425" lon="13.159337687678796"><ele>185.33333333333334</ele><time>2026-04-04T13:57:59Z</time></trkpt><trkpt lat="46.145099771394236" lon="13.159180682835684"><ele>186.0</ele><time>2026-04-04T13:58:00Z</time></trkpt><trkpt lat="46.14526896990158" lon="13.159021603849457"><ele>186.0</ele><time>2026-04-04T13:58:01Z</time></trkpt><trkpt lat="46.1454384887042" lon="13.158862310021837"><ele>186.0</ele><time>2026-04-04T13:58:02Z</time></trkpt><trkpt lat="46.14560768278132" lon="13.158702751060252"><ele>186.0</ele><time>2026-04-04T13:58:03Z</time></trkpt><trkpt lat="46.14578568722987" lon="13.158534626636868"><ele>185.66666666666666</ele><time>2026-04-04T13:58:04Z</time></trkpt><trkpt lat="46.145966690964684" lon="13.158363129060062"><ele>185.33333333333331</ele><time>2026-04-04T13:58:05Z</time></trkpt><trkpt lat="46.14613575265994" lon="13.158200658078277"><ele>185.0</ele><time>2026-04-04T13:58:06Z</time></trkpt><trkpt lat="46.14629043584718" lon="13.158055102447298"><ele>185.0</ele><time>2026-04-04T13:58:07Z</time></trkpt><trkpt lat="46.146440341438826" lon="13.157914217983198"><ele>185.0</ele><time>2026-04-04T13:58:08Z</time></trkpt><trkpt lat="46.14658804538841" lon="13.157773698034854"><ele>185.0</ele><time>2026-04-04T13:58:09Z</time></trkpt><trkpt lat="46.14674425011717" lon="13.157625596989604"><ele>185.0</ele><time>2026-04-04T13:58:10Z</time></trkpt><trkpt lat="46.14690601997658" lon="13.15747395849092"><ele>185.0</ele><time>2026-04-04T13:58:11Z</time></trkpt><trkpt lat="46.1470761977264" lon="13.157315825163167"><ele>185.0</ele><time>2026-04-04T13:58:12Z</time></trkpt><trkpt lat="46.147251871951845" lon="13.157152587661033"><ele>183.66666666666666</ele><time>2026-04-04T13:58:13Z</time></trkpt><trkpt lat="46.147432328413004" lon="13.156978430742981"><ele>182.33333333333334</ele><time>2026-04-04T13:58:14Z</time></trkpt><trkpt lat="46.147616193824184" lon="13.156803122843533"><ele>181.0</ele><time>2026-04-04T13:58:15Z</time></trkpt><trkpt lat="46.14780191377918" lon="13.156626325304718"><ele>182.5</ele><time>2026-04-04T13:58:16Z</time></trkpt><trkpt lat="46.14799447725233" lon="13.15644204006579"><ele>184.0</ele><time>2026-04-04T13:58:17Z</time></trkpt><trkpt lat="46.148196868194404" lon="13.156246457914358"><ele>183.0</ele><time>2026-04-04T13:58:17.999Z</time></trkpt><trkpt lat="46.148398358602044" lon="13.15604631132565"><ele>182.0</ele><time>2026-04-04T13:58:18.999Z</time></trkpt><trkpt lat="46.148592901080974" lon="13.155843492850597"><ele>182.5</ele><time>2026-04-04T13:58:19.999Z</time></trkpt><trkpt lat="46.14878282642461" lon="13.155635122792447"><ele>183.0</ele><time>2026-04-04T13:58:20.999Z</time></trkpt><trkpt lat="46.14896167157575" lon="13.15542714839983"><ele>182.66666666666666</ele><time>2026-04-04T13:58:21.999Z</time></trkpt><trkpt lat="46.14912828321645" lon="13.155228660974393"><ele>182.33333333333331</ele><time>2026-04-04T13:58:22.999Z</time></trkpt><trkpt lat="46.14928336116829" lon="13.155028643190477"><ele>182.0</ele><time>2026-04-04T13:58:23.999Z</time></trkpt><trkpt lat="46.14943000226793" lon="13.15483813483971"><ele>182.0</ele><time>2026-04-04T13:58:24.999Z</time></trkpt><trkpt lat="46.14958068939022" lon="13.154629744496921"><ele>182.0</ele><time>2026-04-04T13:58:25.999Z</time></trkpt><trkpt lat="46.149731658408385" lon="13.154409951219323"><ele>182.0</ele><time>2026-04-04T13:58:26.999Z</time></trkpt><trkpt lat="46.14988119070071" lon="13.154173362640165"><ele>181.66666666666666</ele><time>2026-04-04T13:58:27.999Z</time></trkpt><trkpt lat="46.15002318156574" lon="13.153933455619917"><ele>181.33333333333334</ele><time>2026-04-04T13:58:28.999Z</time></trkpt><trkpt lat="46.15016583685024" lon="13.153687157531724"><ele>181.0</ele><time>2026-04-04T13:58:29.999Z</time></trkpt><trkpt lat="46.15030300081003" lon="13.153442081817875"><ele>180.33333333333334</ele><time>2026-04-04T13:58:30.999Z</time></trkpt><trkpt lat="46.150430386603986" lon="13.153201016493881"><ele>179.66666666666666</ele><time>2026-04-04T13:58:31.999Z</time></trkpt><trkpt lat="46.15054237367218" lon="13.152974678127562"><ele>179.0</ele><time>2026-04-04T13:58:32.999Z</time></trkpt><trkpt lat="46.150643792023786" lon="13.152753492491625"><ele>179.33333333333331</ele><time>2026-04-04T13:58:33.999Z</time></trkpt><trkpt lat="46.15074236854469" lon="13.152526958113373"><ele>179.66666666666666</ele><time>2026-04-04T13:58:34.999Z</time></trkpt><trkpt lat="46.15084576887818" lon="13.15228241547144"><ele>180.0</ele><time>2026-04-04T13:58:35.999Z</time></trkpt><trkpt lat="46.15095537085229" lon="13.152011651866856"><ele>179.5</ele><time>2026-04-04T13:58:36.999Z</time></trkpt><trkpt lat="46.1510710992566" lon="13.151729782817506"><ele>179.0</ele><time>2026-04-04T13:58:37.999Z</time></trkpt><trkpt lat="46.151182741250715" lon="13.151441224720786"><ele>179.0</ele><time>2026-04-04T13:58:38.999Z</time></trkpt><trkpt lat="46.15128480549672" lon="13.151144433776446"><ele>179.0</ele><time>2026-04-04T13:58:39.999Z</time></trkpt><trkpt lat="46.15138152154457" lon="13.150839869250886"><ele>179.0</ele><time>2026-04-04T13:58:40.999Z</time></trkpt><trkpt lat="46.15147560681347" lon="13.15053634010423"><ele>179.0</ele><time>2026-04-04T13:58:41.999Z</time></trkpt><trkpt lat="46.151537135695705" lon="13.150304647209747"><ele>179.0</ele><time>2026-04-04T13:58:42.999Z</time></trkpt><trkpt lat="46.15160858669608" lon="13.150019380360067"><ele>181.0</ele><time>2026-04-04T13:58:43.999Z</time></trkpt><trkpt lat="46.15168987890906" lon="13.14970870569135"><ele>183.0</ele><time>2026-04-04T13:58:44.999Z</time></trkpt><trkpt lat="46.151783933957766" lon="13.14938708710888"><ele>183.0</ele><time>2026-04-04T13:58:45.999Z</time></trkpt><trkpt lat="46.151874052031296" lon="13.149065703107336"><ele>183.0</ele><time>2026-04-04T13:58:46.999Z</time></trkpt><trkpt lat="46.15195450607379" lon="13.148771408350111"><ele>183.33333333333334</ele><time>2026-04-04T13:58:47.999Z</time></trkpt><trkpt lat="46.15203405703748" lon="13.148487094345741"><ele>183.66666666666669</ele><time>2026-04-04T13:58:48.999Z</time></trkpt><trkpt lat="46.152108943751216" lon="13.148224103082129"><ele>184.0</ele><time>2026-04-04T13:58:49.999Z</time></trkpt><trkpt lat="46.15217739462219" lon="13.147977929748027"><ele>184.0</ele><time>2026-04-04T13:58:50.999Z</time></trkpt><trkpt lat="46.15225148865191" lon="13.147726487451399"><ele>184.0</ele><time>2026-04-04T13:58:51.999Z</time></trkpt><trkpt lat="46.152319007886476" lon="13.147458247000655"><ele>184.0</ele><time>2026-04-04T13:58:52.999Z</time></trkpt><trkpt lat="46.1523905196565" lon="13.147193034052444"><ele>184.0</ele><time>2026-04-04T13:58:53.999Z</time></trkpt><trkpt lat="46.15246426432629" lon="13.146925869596757"><ele>184.0</ele><time>2026-04-04T13:58:54.999Z</time></trkpt><trkpt lat="46.15254539096118" lon="13.14663757989155"><ele>184.0</ele><time>2026-04-04T13:58:55.999Z</time></trkpt><trkpt lat="46.15263351332288" lon="13.14633019192664"><ele>184.5</ele><time>2026-04-04T13:58:56.999Z</time></trkpt><trkpt lat="46.152723485121676" lon="13.146009777272235"><ele>185.0</ele><time>2026-04-04T13:58:57.999Z</time></trkpt><trkpt lat="46.152811763918635" lon="13.145674396563766"><ele>186.5</ele><time>2026-04-04T13:58:58.999Z</time></trkpt><trkpt lat="46.15290523183934" lon="13.14533291911095"><ele>188.0</ele><time>2026-04-04T13:58:59.999Z</time></trkpt><trkpt lat="46.15299285556692" lon="13.144994170925942"><ele>190.0</ele><time>2026-04-04T13:59:00.999Z</time></trkpt><trkpt lat="46.153078541715935" lon="13.144675425338805"><ele>192.0</ele><time>2026-04-04T13:59:02Z</time></trkpt><trkpt lat="46.153168251293366" lon="13.144350055495305"><ele>188.0</ele><time>2026-04-04T13:59:03Z</time></trkpt><trkpt lat="46.15326355228164" lon="13.144016190964306"><ele>184.0</ele><time>2026-04-04T13:59:04Z</time></trkpt><trkpt lat="46.15335557675025" lon="13.143686628147245"><ele>184.0</ele><time>2026-04-04T13:59:05Z</time></trkpt><trkpt lat="46.15343397392809" lon="13.143415985239425"><ele>184.0</ele><time>2026-04-04T13:59:06Z</time></trkpt><trkpt lat="46.15351387343649" lon="13.143140228399886"><ele>184.0</ele><time>2026-04-04T13:59:07Z</time></trkpt><trkpt lat="46.153590405500225" lon="13.142836309740838"><ele>185.0</ele><time>2026-04-04T13:59:08Z</time></trkpt><trkpt lat="46.15367847967269" lon="13.14251370260231"><ele>186.0</ele><time>2026-04-04T13:59:09Z</time></trkpt><trkpt lat="46.15377238913107" lon="13.142173120843863"><ele>187.0</ele><time>2026-04-04T13:59:10Z</time></trkpt><trkpt lat="46.15387086575254" lon="13.141815630419815"><ele>188.0</ele><time>2026-04-04T13:59:10.999Z</time></trkpt><trkpt lat="46.15396961550171" lon="13.141472164308281"><ele>184.5</ele><time>2026-04-04T13:59:11.999Z</time></trkpt><trkpt lat="46.1540602234241" lon="13.141167597874942"><ele>181.0</ele><time>2026-04-04T13:59:12.999Z</time></trkpt><trkpt lat="46.15415461943457" lon="13.140875452906098"><ele>181.0</ele><time>2026-04-04T13:59:13.999Z</time></trkpt><trkpt lat="46.15425773187304" lon="13.14057531347837"><ele>181.0</ele><time>2026-04-04T13:59:14.999Z</time></trkpt><trkpt lat="46.15437144795399" lon="13.140261390697942"><ele>181.0</ele><time>2026-04-04T13:59:16Z</time></trkpt><trkpt lat="46.154492847421096" lon="13.139946477546308"><ele>181.0</ele><time>2026-04-04T13:59:17Z</time></trkpt><trkpt lat="46.154622561598835" lon="13.139635898294502"><ele>180.5</ele><time>2026-04-04T13:59:18Z</time></trkpt><trkpt lat="46.154761237332316" lon="13.139323001069457"><ele>180.0</ele><time>2026-04-04T13:59:19Z</time></trkpt><trkpt lat="46.15490784206885" lon="13.1390067369461"><ele>180.0</ele><time>2026-04-04T13:59:20Z</time></trkpt><trkpt lat="46.15506140768245" lon="13.13870247986203"><ele>180.0</ele><time>2026-04-04T13:59:21Z</time></trkpt><trkpt lat="46.15522092578522" lon="13.13841049842059"><ele>180.5</ele><time>2026-04-04T13:59:22Z</time></trkpt><trkpt lat="46.15537395248382" lon="13.138133062111029"><ele>181.0</ele><time>2026-04-04T13:59:23Z</time></trkpt><trkpt lat="46.15553703136502" lon="13.137865935234627"><ele>181.0</ele><time>2026-04-04T13:59:24Z</time></trkpt><trkpt lat="46.15570276946885" lon="13.137607278910599"><ele>181.0</ele><time>2026-04-04T13:59:25Z</time></trkpt><trkpt lat="46.15587662085757" lon="13.13734899349086"><ele>181.0</ele><time>2026-04-04T13:59:26Z</time></trkpt><trkpt lat="46.15604751978951" lon="13.13712328685319"><ele>181.0</ele><time>2026-04-04T13:59:27Z</time></trkpt><trkpt lat="46.15621060474596" lon="13.136912055889695"><ele>181.0</ele><time>2026-04-04T13:59:28Z</time></trkpt><trkpt lat="46.156367312190234" lon="13.136706877697966"><ele>181.0</ele><time>2026-04-04T13:59:29Z</time></trkpt><trkpt lat="46.156542062688665" lon="13.13648119682632"><ele>181.0</ele><time>2026-04-04T13:59:30Z</time></trkpt><trkpt lat="46.156739480976555" lon="13.136260170531273"><ele>181.0</ele><time>2026-04-04T13:59:31Z</time></trkpt><trkpt lat="46.15694480277689" lon="13.136044417325065"><ele>181.0</ele><time>2026-04-04T13:59:32Z</time></trkpt><trkpt lat="46.157130502547666" lon="13.135860714364178"><ele>180.66666666666669</ele><time>2026-04-04T13:59:33Z</time></trkpt><trkpt lat="46.15730839060145" lon="13.135689007748427"><ele>180.33333333333334</ele><time>2026-04-04T13:59:34Z</time></trkpt><trkpt lat="46.15748859951933" lon="13.135514570307379"><ele>180.0</ele><time>2026-04-04T13:59:35Z</time></trkpt><trkpt lat="46.15768089954142" lon="13.13534794812748"><ele>181.5</ele><time>2026-04-04T13:59:36Z</time></trkpt><trkpt lat="46.15788510382158" lon="13.135184427605719"><ele>183.0</ele><time>2026-04-04T13:59:37Z</time></trkpt><trkpt lat="46.158096515645894" lon="13.135028011339045"><ele>184.5</ele><time>2026-04-04T13:59:38Z</time></trkpt><trkpt lat="46.15831360755955" lon="13.134868504500732"><ele>186.0</ele><time>2026-04-04T13:59:39Z</time></trkpt><trkpt lat="46.15853533140736" lon="13.13471431091612"><ele>186.0</ele><time>2026-04-04T13:59:40Z</time></trkpt><trkpt lat="46.15875170591088" lon="13.134573109107235"><ele>186.0</ele><time>2026-04-04T13:59:41Z</time></trkpt><trkpt lat="46.15895690589391" lon="13.13445146756446"><ele>187.66666666666666</ele><time>2026-04-04T13:59:42Z</time></trkpt><trkpt lat="46.15914904619129" lon="13.134345419150064"><ele>189.33333333333331</ele><time>2026-04-04T13:59:43Z</time></trkpt><trkpt lat="46.159334473006304" lon="13.134252569361454"><ele>191.0</ele><time>2026-04-04T13:59:44Z</time></trkpt><trkpt lat="46.15952301370959" lon="13.134159276811857"><ele>191.0</ele><time>2026-04-04T13:59:45Z</time></trkpt><trkpt lat="46.15972477598385" lon="13.134070941397797"><ele>191.0</ele><time>2026-04-04T13:59:46Z</time></trkpt><trkpt lat="46.1599413516417" lon="13.13398365673173"><ele>191.0</ele><time>2026-04-04T13:59:47Z</time></trkpt><trkpt lat="46.160164261916826" lon="13.133901262704516"><ele>192.66666666666666</ele><time>2026-04-04T13:59:48Z</time></trkpt><trkpt lat="46.16037798787797" lon="13.133832550351821"><ele>194.33333333333331</ele><time>2026-04-04T13:59:49Z</time></trkpt><trkpt lat="46.160575938369114" lon="13.133775070109058"><ele>196.0</ele><time>2026-04-04T13:59:50Z</time></trkpt><trkpt lat="46.16076768079739" lon="13.133723369951017"><ele>196.0</ele><time>2026-04-04T13:59:51Z</time></trkpt><trkpt lat="46.16097607303195" lon="13.133678280930825"><ele>196.0</ele><time>2026-04-04T13:59:52Z</time></trkpt><trkpt lat="46.161198818049236" lon="13.133644496768241"><ele>196.0</ele><time>2026-04-04T13:59:53Z</time></trkpt><trkpt lat="46.16144168520841" lon="13.133590620285943"><ele>194.0</ele><time>2026-04-04T13:59:54Z</time></trkpt><trkpt lat="46.16168430193733" lon="13.133567822689574"><ele>192.0</ele><time>2026-04-04T13:59:55Z</time></trkpt><trkpt lat="46.16192537470103" lon="13.133550670861725"><ele>192.0</ele><time>2026-04-04T13:59:56Z</time></trkpt><trkpt lat="46.162166221313235" lon="13.133540350414357"><ele>192.0</ele><time>2026-04-04T13:59:57Z</time></trkpt><trkpt lat="46.16241829189403" lon="13.1335372647274"><ele>192.0</ele><time>2026-04-04T13:59:58Z</time></trkpt><trkpt lat="46.16267785066351" lon="13.13354005190996"><ele>192.0</ele><time>2026-04-04T13:59:59Z</time></trkpt><trkpt lat="46.16294576056398" lon="13.133549878140666"><ele>191.5</ele><time>2026-04-04T14:00:00Z</time></trkpt><trkpt lat="46.16322551127779" lon="13.13356039592486"><ele>191.0</ele><time>2026-04-04T14:00:01Z</time></trkpt><trkpt lat="46.1635125714187" lon="13.133570446057057"><ele>191.0</ele><time>2026-04-04T14:00:02Z</time></trkpt><trkpt lat="46.16380889035949" lon="13.133572362731813"><ele>191.0</ele><time>2026-04-04T14:00:03Z</time></trkpt><trkpt lat="46.16413338419812" lon="13.133571503914364"><ele>189.5</ele><time>2026-04-04T14:00:04Z</time></trkpt><trkpt lat="46.1644866825864" lon="13.133600189896422"><ele>188.0</ele><time>2026-04-04T14:00:05Z</time></trkpt><trkpt lat="46.16482609681042" lon="13.133610732323035"><ele>189.0</ele><time>2026-04-04T14:00:06Z</time></trkpt><trkpt lat="46.16512834693869" lon="13.133607738514229"><ele>190.0</ele><time>2026-04-04T14:00:07Z</time></trkpt><trkpt lat="46.165413998075024" lon="13.133629485789918"><ele>190.0</ele><time>2026-04-04T14:00:08Z</time></trkpt><trkpt lat="46.16567996548207" lon="13.133643383065108"><ele>190.0</ele><time>2026-04-04T14:00:09Z</time></trkpt><trkpt lat="46.16594444753387" lon="13.13364984386107"><ele>190.5</ele><time>2026-04-04T14:00:10Z</time></trkpt><trkpt lat="46.16621326161512" lon="13.133657222609218"><ele>191.0</ele><time>2026-04-04T14:00:11Z</time></trkpt><trkpt lat="46.166470248733084" lon="13.133666180328072"><ele>195.5</ele><time>2026-04-04T14:00:12Z</time></trkpt><trkpt lat="46.16672594027058" lon="13.133675452088095"><ele>200.0</ele><time>2026-04-04T14:00:13Z</time></trkpt><trkpt lat="46.16698691842863" lon="13.133680230947007"><ele>200.0</ele><time>2026-04-04T14:00:14Z</time></trkpt><trkpt lat="46.167232914783845" lon="13.133675833799545"><ele>200.0</ele><time>2026-04-04T14:00:15Z</time></trkpt><trkpt lat="46.167470496311275" lon="13.133660816892329"><ele>201.0</ele><time>2026-04-04T14:00:16Z</time></trkpt><trkpt lat="46.167711097602044" lon="13.13363251217055"><ele>202.0</ele><time>2026-04-04T14:00:17Z</time></trkpt><trkpt lat="46.1679454010163" lon="13.133590016267693"><ele>202.0</ele><time>2026-04-04T14:00:18Z</time></trkpt><trkpt lat="46.16817057621783" lon="13.133534507142434"><ele>202.0</ele><time>2026-04-04T14:00:19Z</time></trkpt><trkpt lat="46.168386276732626" lon="13.13347758292552"><ele>202.0</ele><time>2026-04-04T14:00:20Z</time></trkpt><trkpt lat="46.16860759937921" lon="13.133411772578736"><ele>200.0</ele><time>2026-04-04T14:00:21Z</time></trkpt><trkpt lat="46.16883717890006" lon="13.133330433823785"><ele>198.0</ele><time>2026-04-04T14:00:22Z</time></trkpt><trkpt lat="46.16906571348024" lon="13.133239772429055"><ele>193.0</ele><time>2026-04-04T14:00:23Z</time></trkpt><trkpt lat="46.16928975356939" lon="13.13314082893719"><ele>188.0</ele><time>2026-04-04T14:00:24Z</time></trkpt><trkpt lat="46.16950052194444" lon="13.13304102846745"><ele>188.0</ele><time>2026-04-04T14:00:25Z</time></trkpt><trkpt lat="46.16969796268302" lon="13.132943919179816"><ele>188.0</ele><time>2026-04-04T14:00:26Z</time></trkpt><trkpt lat="46.16988879597045" lon="13.132844717210514"><ele>188.0</ele><time>2026-04-04T14:00:27Z</time></trkpt><trkpt lat="46.17007265483643" lon="13.132716800629982"><ele>188.0</ele><time>2026-04-04T14:00:28Z</time></trkpt><trkpt lat="46.170272312457946" lon="13.132583423084892"><ele>188.0</ele><time>2026-04-04T14:00:29Z</time></trkpt><trkpt lat="46.17047956996437" lon="13.132444157216158"><ele>188.0</ele><time>2026-04-04T14:00:30Z</time></trkpt><trkpt lat="46.17068972683632" lon="13.132300393939182"><ele>187.33333333333331</ele><time>2026-04-04T14:00:31Z</time></trkpt><trkpt lat="46.17088959057684" lon="13.132167701159858"><ele>186.66666666666666</ele><time>2026-04-04T14:00:32Z</time></trkpt><trkpt lat="46.171079200292816" lon="13.132045203399425"><ele>186.0</ele><time>2026-04-04T14:00:33Z</time></trkpt><trkpt lat="46.1712637197466" lon="13.131926918560627"><ele>186.0</ele><time>2026-04-04T14:00:34Z</time></trkpt><trkpt lat="46.17145581970311" lon="13.131803390968052"><ele>186.0</ele><time>2026-04-04T14:00:35Z</time></trkpt><trkpt lat="46.17164021599828" lon="13.13168359873418"><ele>186.0</ele><time>2026-04-04T14:00:36Z</time></trkpt><trkpt lat="46.17182874042124" lon="13.131562011233628"><ele>184.5</ele><time>2026-04-04T14:00:37Z</time></trkpt><trkpt lat="46.17204248568338" lon="13.131424932801579"><ele>183.0</ele><time>2026-04-04T14:00:38Z</time></trkpt><trkpt lat="46.17227547516108" lon="13.131279296437956"><ele>184.5</ele><time>2026-04-04T14:00:39Z</time></trkpt><trkpt lat="46.17251313409808" lon="13.131130501268688"><ele>186.0</ele><time>2026-04-04T14:00:40Z</time></trkpt><trkpt lat="46.17274586181928" lon="13.130976449040801"><ele>186.0</ele><time>2026-04-04T14:00:41Z</time></trkpt><trkpt lat="46.17296376986608" lon="13.130830727340326"><ele>186.0</ele><time>2026-04-04T14:00:42Z</time></trkpt><trkpt lat="46.17319034423472" lon="13.130683079418521"><ele>187.5</ele><time>2026-04-04T14:00:43Z</time></trkpt><trkpt lat="46.17342520531528" lon="13.130531376962384"><ele>189.0</ele><time>2026-04-04T14:00:44Z</time></trkpt><trkpt lat="46.17365236772233" lon="13.130387965487568"><ele>189.0</ele><time>2026-04-04T14:00:45Z</time></trkpt><trkpt lat="46.173863251035954" lon="13.130254963070392"><ele>189.0</ele><time>2026-04-04T14:00:46Z</time></trkpt><trkpt lat="46.1740597562908" lon="13.130133594207416"><ele>189.0</ele><time>2026-04-04T14:00:47Z</time></trkpt><trkpt lat="46.1742585283354" lon="13.130007554288376"><ele>189.5</ele><time>2026-04-04T14:00:48Z</time></trkpt><trkpt lat="46.174472379521994" lon="13.129866580772287"><ele>190.0</ele><time>2026-04-04T14:00:49Z</time></trkpt><trkpt lat="46.17469305617154" lon="13.129723328425277"><ele>192.0</ele><time>2026-04-04T14:00:50Z</time></trkpt><trkpt lat="46.17490902566611" lon="13.129583411239873"><ele>194.0</ele><time>2026-04-04T14:00:51Z</time></trkpt><trkpt lat="46.17511007838156" lon="13.129452650661774"><ele>194.0</ele><time>2026-04-04T14:00:52Z</time></trkpt><trkpt lat="46.17529559106935" lon="13.129328408367106"><ele>194.0</ele><time>2026-04-04T14:00:53Z</time></trkpt><trkpt lat="46.17547434742496" lon="13.129213582069456"><ele>194.0</ele><time>2026-04-04T14:00:54Z</time></trkpt><trkpt lat="46.17564435064359" lon="13.129106872955532"><ele>193.66666666666669</ele><time>2026-04-04T14:00:55Z</time></trkpt><trkpt lat="46.17580408062578" lon="13.129003089711754"><ele>193.33333333333331</ele><time>2026-04-04T14:00:56Z</time></trkpt><trkpt lat="46.17595170356022" lon="13.128905851844653"><ele>193.0</ele><time>2026-04-04T14:00:57Z</time></trkpt><trkpt lat="46.17609315434224" lon="13.128815255083056"><ele>193.0</ele><time>2026-04-04T14:00:58Z</time></trkpt><trkpt lat="46.176227252525905" lon="13.128730373698048"><ele>193.0</ele><time>2026-04-04T14:00:59Z</time></trkpt><trkpt lat="46.17635293015751" lon="13.12865100611821"><ele>193.0</ele><time>2026-04-04T14:01:00Z</time></trkpt><trkpt lat="46.176472615967896" lon="13.128574614827548"><ele>193.0</ele><time>2026-04-04T14:01:01Z</time></trkpt><trkpt lat="46.17658287548741" lon="13.128497511771949"><ele>192.60000000000002</ele><time>2026-04-04T14:01:02Z</time></trkpt><trkpt lat="46.17668779505711" lon="13.128419524349738"><ele>192.20000000000002</ele><time>2026-04-04T14:01:03Z</time></trkpt><trkpt lat="46.17677401529416" lon="13.128352937744141"><ele>191.8</ele><time>2026-04-04T14:01:04Z</time></trkpt><trkpt lat="46.17683344880131" lon="13.12830671026552"><ele>191.4</ele><time>2026-04-04T14:01:05Z</time></trkpt><trkpt lat="46.17693533016976" lon="13.128222840015658"><ele>191.0</ele><time>2026-04-04T14:01:07Z</time></trkpt><trkpt lat="46.17700183992749" lon="13.128195949006995"><ele>190.4</ele><time>2026-04-04T14:01:08Z</time></trkpt><trkpt lat="46.17708482888913" lon="13.128192430149342"><ele>189.8</ele><time>2026-04-04T14:01:09Z</time></trkpt><trkpt lat="46.17715990552137" lon="13.12819233043837"><ele>189.20000000000002</ele><time>2026-04-04T14:01:10Z</time></trkpt><trkpt lat="46.17722207421502" lon="13.128173932912949"><ele>188.60000000000002</ele><time>2026-04-04T14:01:11Z</time></trkpt><trkpt lat="46.17729945435826" lon="13.128092822127181"><ele>188.0</ele><time>2026-04-04T14:01:12Z</time></trkpt><trkpt lat="46.17741036472428" lon="13.127969055587087"><ele>187.0</ele><time>2026-04-04T14:01:13Z</time></trkpt><trkpt lat="46.1775786521773" lon="13.127837288715742"><ele>186.0</ele><time>2026-04-04T14:01:14Z</time></trkpt><trkpt lat="46.17779452649901" lon="13.127701474238187"><ele>185.0</ele><time>2026-04-04T14:01:15Z</time></trkpt><trkpt lat="46.17805548935171" lon="13.127541146820029"><ele>184.5</ele><time>2026-04-04T14:01:16Z</time></trkpt><trkpt lat="46.17836056610333" lon="13.127343211929992"><ele>184.0</ele><time>2026-04-04T14:01:17Z</time></trkpt><trkpt lat="46.17870606124897" lon="13.127116622856025"><ele>183.0</ele><time>2026-04-04T14:01:18Z</time></trkpt><trkpt lat="46.1790873654802" lon="13.126872719535337"><ele>182.0</ele><time>2026-04-04T14:01:19Z</time></trkpt><trkpt lat="46.17946649872173" lon="13.12662828628295"><ele>182.5</ele><time>2026-04-04T14:01:20Z</time></trkpt><trkpt lat="46.1797985092794" lon="13.126415050249312"><ele>183.0</ele><time>2026-04-04T14:01:21Z</time></trkpt><trkpt lat="46.18010099482946" lon="13.126217904943804"><ele>183.0</ele><time>2026-04-04T14:01:22Z</time></trkpt><trkpt lat="46.18039285482398" lon="13.126024171232132"><ele>183.0</ele><time>2026-04-04T14:01:23Z</time></trkpt><trkpt lat="46.18067026152947" lon="13.12584189688191"><ele>182.5</ele><time>2026-04-04T14:01:24Z</time></trkpt><trkpt lat="46.180946761560904" lon="13.125669058028803"><ele>182.0</ele><time>2026-04-04T14:01:25Z</time></trkpt><trkpt lat="46.18123510905678" lon="13.125487432004727"><ele>181.5</ele><time>2026-04-04T14:01:26Z</time></trkpt><trkpt lat="46.18153179977335" lon="13.125297175172141"><ele>181.0</ele><time>2026-04-04T14:01:27Z</time></trkpt><trkpt lat="46.18183461518852" lon="13.125097589028643"><ele>181.0</ele><time>2026-04-04T14:01:28Z</time></trkpt><trkpt lat="46.182143303969795" lon="13.124894507039148"><ele>181.0</ele><time>2026-04-04T14:01:29Z</time></trkpt><trkpt lat="46.18245592119733" lon="13.124693452553434"><ele>178.5</ele><time>2026-04-04T14:01:30Z</time></trkpt><trkpt lat="46.182746278947285" lon="13.124509378144186"><ele>176.0</ele><time>2026-04-04T14:01:31Z</time></trkpt><trkpt lat="46.183007810427824" lon="13.124340663356268"><ele>176.5</ele><time>2026-04-04T14:01:32Z</time></trkpt><trkpt lat="46.18325376375815" lon="13.124180391927002"><ele>177.0</ele><time>2026-04-04T14:01:33Z</time></trkpt><trkpt lat="46.18349187230901" lon="13.124026184655873"><ele>177.0</ele><time>2026-04-04T14:01:34Z</time></trkpt><trkpt lat="46.18373135077556" lon="13.123869890923782"><ele>177.0</ele><time>2026-04-04T14:01:35Z</time></trkpt><trkpt lat="46.18397745111985" lon="13.123712219373983"><ele>177.5</ele><time>2026-04-04T14:01:36Z</time></trkpt><trkpt lat="46.18421780930813" lon="13.123557221509852"><ele>178.0</ele><time>2026-04-04T14:01:37Z</time></trkpt><trkpt lat="46.18443813651196" lon="13.123413582631029"><ele>178.0</ele><time>2026-04-04T14:01:38Z</time></trkpt><trkpt lat="46.18464699380815" lon="13.123277334130247"><ele>178.0</ele><time>2026-04-04T14:01:39Z</time></trkpt><trkpt lat="46.18484807000375" lon="13.123148158070695"><ele>178.0</ele><time>2026-04-04T14:01:40Z</time></trkpt><trkpt lat="46.1850509244445" lon="13.12301731204395"><ele>175.5</ele><time>2026-04-04T14:01:41Z</time></trkpt><trkpt lat="46.18526079769797" lon="13.12287904129984"><ele>173.0</ele><time>2026-04-04T14:01:42Z</time></trkpt><trkpt lat="46.18547978832118" lon="13.12273507319984"><ele>176.5</ele><time>2026-04-04T14:01:43Z</time></trkpt><trkpt lat="46.185706351509474" lon="13.122588127325558"><ele>180.0</ele><time>2026-04-04T14:01:44Z</time></trkpt><trkpt lat="46.18594280139178" lon="13.12243831341722"><ele>174.5</ele><time>2026-04-04T14:01:45Z</time></trkpt><trkpt lat="46.18618875966115" lon="13.122284649422593"><ele>169.0</ele><time>2026-04-04T14:01:46Z</time></trkpt><trkpt lat="46.186440959941585" lon="13.12212295710686"><ele>170.0</ele><time>2026-04-04T14:01:47Z</time></trkpt><trkpt lat="46.186703178105574" lon="13.12195292762898"><ele>171.0</ele><time>2026-04-04T14:01:48Z</time></trkpt><trkpt lat="46.18696389689634" lon="13.121785907986766"><ele>171.0</ele><time>2026-04-04T14:01:49Z</time></trkpt><trkpt lat="46.18720704353315" lon="13.121627222641525"><ele>171.0</ele><time>2026-04-04T14:01:50Z</time></trkpt><trkpt lat="46.187436519207075" lon="13.121478964729853"><ele>172.0</ele><time>2026-04-04T14:01:51Z</time></trkpt><trkpt lat="46.18766146344384" lon="13.121329039174242"><ele>173.0</ele><time>2026-04-04T14:01:52Z</time></trkpt><trkpt lat="46.18788665008156" lon="13.121183679098028"><ele>173.0</ele><time>2026-04-04T14:01:53Z</time></trkpt><trkpt lat="46.188118327358296" lon="13.121040889337644"><ele>173.0</ele><time>2026-04-04T14:01:54Z</time></trkpt><trkpt lat="46.188354812316106" lon="13.12090387386929"><ele>173.0</ele><time>2026-04-04T14:01:55Z</time></trkpt><trkpt lat="46.18859627682583" lon="13.120779479901739"><ele>173.0</ele><time>2026-04-04T14:01:56Z</time></trkpt><trkpt lat="46.18884026621119" lon="13.120667945053787"><ele>171.5</ele><time>2026-04-04T14:01:57Z</time></trkpt><trkpt lat="46.18908979023514" lon="13.12056703669068"><ele>170.0</ele><time>2026-04-04T14:01:58Z</time></trkpt><trkpt lat="46.1893481292317" lon="13.120473754767366"><ele>170.0</ele><time>2026-04-04T14:01:59Z</time></trkpt><trkpt lat="46.18961127103804" lon="13.120395070062179"><ele>170.0</ele><time>2026-04-04T14:02:00Z</time></trkpt><trkpt lat="46.189871987367646" lon="13.120338697512075"><ele>168.0</ele><time>2026-04-04T14:02:01Z</time></trkpt><trkpt lat="46.19013127760501" lon="13.120291405729958"><ele>166.0</ele><time>2026-04-04T14:02:02Z</time></trkpt><trkpt lat="46.19043827135953" lon="13.120238417501326"><ele>165.5</ele><time>2026-04-04T14:02:03Z</time></trkpt><trkpt lat="46.19072276423809" lon="13.120213119848636"><ele>165.0</ele><time>2026-04-04T14:02:04Z</time></trkpt><trkpt lat="46.19101173337034" lon="13.12022116875238"><ele>165.0</ele><time>2026-04-04T14:02:05Z</time></trkpt><trkpt lat="46.19127937315669" lon="13.120227531232924"><ele>165.0</ele><time>2026-04-04T14:02:06Z</time></trkpt><trkpt lat="46.19153041640355" lon="13.120255490965166"><ele>165.0</ele><time>2026-04-04T14:02:07Z</time></trkpt><trkpt lat="46.19177996483537" lon="13.120293932730625"><ele>165.0</ele><time>2026-04-04T14:02:08Z</time></trkpt><trkpt lat="46.19205609667613" lon="13.120352654664925"><ele>165.5</ele><time>2026-04-04T14:02:09Z</time></trkpt><trkpt lat="46.192342225647835" lon="13.120422419347086"><ele>166.0</ele><time>2026-04-04T14:02:10Z</time></trkpt><trkpt lat="46.19260384483305" lon="13.120484407879477"><ele>166.0</ele><time>2026-04-04T14:02:11Z</time></trkpt><trkpt lat="46.192848009046244" lon="13.120542127529562"><ele>166.0</ele><time>2026-04-04T14:02:12Z</time></trkpt><trkpt lat="46.19307845927086" lon="13.120591431242662"><ele>165.66666666666669</ele><time>2026-04-04T14:02:13Z</time></trkpt><trkpt lat="46.193298803173164" lon="13.120645794099987"><ele>165.33333333333334</ele><time>2026-04-04T14:02:14Z</time></trkpt><trkpt lat="46.19351011740559" lon="13.120694465685395"><ele>165.0</ele><time>2026-04-04T14:02:15Z</time></trkpt><trkpt lat="46.19371713184697" lon="13.12073743856905"><ele>165.0</ele><time>2026-04-04T14:02:16Z</time></trkpt><trkpt lat="46.193923627701224" lon="13.12078145680672"><ele>165.0</ele><time>2026-04-04T14:02:17Z</time></trkpt><trkpt lat="46.1941315710372" lon="13.120832229896616"><ele>165.0</ele><time>2026-04-04T14:02:18Z</time></trkpt><trkpt lat="46.194341301189226" lon="13.120870973951"><ele>165.66666666666666</ele><time>2026-04-04T14:02:19Z</time></trkpt><trkpt lat="46.19454679868741" lon="13.120927926222341"><ele>166.33333333333331</ele><time>2026-04-04T14:02:20Z</time></trkpt><trkpt lat="46.19475161576364" lon="13.120976311912328"><ele>167.0</ele><time>2026-04-04T14:02:21Z</time></trkpt><trkpt lat="46.194958745563" lon="13.121022937325739"><ele>168.0</ele><time>2026-04-04T14:02:22Z</time></trkpt><trkpt lat="46.195167889036675" lon="13.12107321407691"><ele>169.0</ele><time>2026-04-04T14:02:23Z</time></trkpt><trkpt lat="46.195362595645015" lon="13.121116749129722"><ele>170.0</ele><time>2026-04-04T14:02:24Z</time></trkpt><trkpt lat="46.195542647649795" lon="13.121155754172037"><ele>171.66666666666666</ele><time>2026-04-04T14:02:25Z</time></trkpt><trkpt lat="46.19572828758854" lon="13.1211975788275"><ele>173.33333333333334</ele><time>2026-04-04T14:02:26Z</time></trkpt><trkpt lat="46.19592634412575" lon="13.121243680284561"><ele>175.0</ele><time>2026-04-04T14:02:27Z</time></trkpt><trkpt lat="46.19612899748102" lon="13.121291905879676"><ele>175.0</ele><time>2026-04-04T14:02:28Z</time></trkpt><trkpt lat="46.19630737707478" lon="13.121336710632457"><ele>175.0</ele><time>2026-04-04T14:02:29Z</time></trkpt><trkpt lat="46.19649073387599" lon="13.121377789953167"><ele>175.0</ele><time>2026-04-04T14:02:30Z</time></trkpt><trkpt lat="46.19667568747435" lon="13.121416674050208"><ele>176.0</ele><time>2026-04-04T14:02:31Z</time></trkpt><trkpt lat="46.196862837337555" lon="13.121454851507766"><ele>177.0</ele><time>2026-04-04T14:02:32Z</time></trkpt><trkpt lat="46.19704445287174" lon="13.12149433299401"><ele>178.0</ele><time>2026-04-04T14:02:33Z</time></trkpt><trkpt lat="46.19722756075827" lon="13.121538013757974"><ele>176.33333333333334</ele><time>2026-04-04T14:02:34Z</time></trkpt><trkpt lat="46.19740000293649" lon="13.121579597077435"><ele>174.66666666666666</ele><time>2026-04-04T14:02:35Z</time></trkpt><trkpt lat="46.19755932087481" lon="13.12161761533304"><ele>173.0</ele><time>2026-04-04T14:02:36Z</time></trkpt><trkpt lat="46.197709119558155" lon="13.12164308630976"><ele>173.0</ele><time>2026-04-04T14:02:37Z</time></trkpt><trkpt lat="46.197851333217024" lon="13.121669232730065"><ele>173.0</ele><time>2026-04-04T14:02:38Z</time></trkpt><trkpt lat="46.19798605158073" lon="13.12169294357383"><ele>173.0</ele><time>2026-04-04T14:02:39Z</time></trkpt><trkpt lat="46.198115664644426" lon="13.121712574410349"><ele>173.0</ele><time>2026-04-04T14:02:40Z</time></trkpt><trkpt lat="46.19825233378756" lon="13.121728353485235"><ele>173.0</ele><time>2026-04-04T14:02:41Z</time></trkpt><trkpt lat="46.198395736425844" lon="13.121737145851302"><ele>173.0</ele><time>2026-04-04T14:02:42Z</time></trkpt><trkpt lat="46.198547472043856" lon="13.121731058938112"><ele>173.0</ele><time>2026-04-04T14:02:43Z</time></trkpt><trkpt lat="46.19870383996113" lon="13.121718232584175"><ele>173.0</ele><time>2026-04-04T14:02:44Z</time></trkpt><trkpt lat="46.198865913904676" lon="13.121704627706347"><ele>173.0</ele><time>2026-04-04T14:02:45Z</time></trkpt><trkpt lat="46.19902739081364" lon="13.121678720327312"><ele>173.0</ele><time>2026-04-04T14:02:46Z</time></trkpt><trkpt lat="46.1991966665001" lon="13.121648816718354"><ele>173.0</ele><time>2026-04-04T14:02:47Z</time></trkpt><trkpt lat="46.19935291902982" lon="13.121615869641165"><ele>173.0</ele><time>2026-04-04T14:02:48Z</time></trkpt><trkpt lat="46.199497815546884" lon="13.121577596465297"><ele>173.0</ele><time>2026-04-04T14:02:49Z</time></trkpt><trkpt lat="46.199640066462926" lon="13.121531070932093"><ele>173.33333333333331</ele><time>2026-04-04T14:02:50Z</time></trkpt><trkpt lat="46.199787000727284" lon="13.121481874191444"><ele>173.66666666666666</ele><time>2026-04-04T14:02:51Z</time></trkpt><trkpt lat="46.19993766771416" lon="13.12142293354533"><ele>174.0</ele><time>2026-04-04T14:02:52Z</time></trkpt><trkpt lat="46.20009593627266" lon="13.121351461428338"><ele>174.66666666666666</ele><time>2026-04-04T14:02:53Z</time></trkpt><trkpt lat="46.20025369231265" lon="13.121270924104577"><ele>175.33333333333331</ele><time>2026-04-04T14:02:54Z</time></trkpt><trkpt lat="46.20041213071445" lon="13.121186981608549"><ele>176.0</ele><time>2026-04-04T14:02:55Z</time></trkpt><trkpt lat="46.20056897156956" lon="13.121098103211855"><ele>176.33333333333331</ele><time>2026-04-04T14:02:56Z</time></trkpt><trkpt lat="46.20072694766957" lon="13.120997477589789"><ele>176.66666666666666</ele><time>2026-04-04T14:02:57Z</time></trkpt><trkpt lat="46.20088708850574" lon="13.12088346830799"><ele>177.0</ele><time>2026-04-04T14:02:58Z</time></trkpt><trkpt lat="46.20104868015372" lon="13.120766498363196"><ele>177.33333333333334</ele><time>2026-04-04T14:02:59Z</time></trkpt><trkpt lat="46.201200506566465" lon="13.120645887193335"><ele>177.66666666666669</ele><time>2026-04-04T14:03:00Z</time></trkpt><trkpt lat="46.20134178637224" lon="13.120528001133133"><ele>178.0</ele><time>2026-04-04T14:03:01Z</time></trkpt><trkpt lat="46.201476390082895" lon="13.120406146521978"><ele>177.0</ele><time>2026-04-04T14:03:02Z</time></trkpt><trkpt lat="46.20160527569534" lon="13.12028014252011"><ele>176.0</ele><time>2026-04-04T14:03:03Z</time></trkpt><trkpt lat="46.201727771421474" lon="13.120152412051684"><ele>175.0</ele><time>2026-04-04T14:03:04Z</time></trkpt><trkpt lat="46.20184509893141" lon="13.120022830252479"><ele>175.75</ele><time>2026-04-04T14:03:05Z</time></trkpt><trkpt lat="46.20195402702189" lon="13.119894998593686"><ele>176.5</ele><time>2026-04-04T14:03:06Z</time></trkpt><trkpt lat="46.20205092365894" lon="13.119774818319124"><ele>177.25</ele><time>2026-04-04T14:03:07Z</time></trkpt><trkpt lat="46.20213522299154" lon="13.119671378919637"><ele>178.0</ele><time>2026-04-04T14:03:08Z</time></trkpt><trkpt lat="46.20221249830971" lon="13.119573868698497"><ele>178.0</ele><time>2026-04-04T14:03:09Z</time></trkpt><trkpt lat="46.20228299186505" lon="13.11948909526495"><ele>178.0</ele><time>2026-04-04T14:03:10Z</time></trkpt><trkpt lat="46.2023461052" lon="13.11940652696221"><ele>178.0</ele><time>2026-04-04T14:03:11Z</time></trkpt><trkpt lat="46.20241154251923" lon="13.119330216878266"><ele>178.0</ele><time>2026-04-04T14:03:12Z</time></trkpt><trkpt lat="46.20249550864765" lon="13.119258989997057"><ele>178.0</ele><time>2026-04-04T14:03:13Z</time></trkpt><trkpt lat="46.202591620156944" lon="13.119199803122953"><ele>177.60000000000002</ele><time>2026-04-04T14:03:14Z</time></trkpt><trkpt lat="46.20267125638944" lon="13.119123083150969"><ele>177.20000000000002</ele><time>2026-04-04T14:03:15Z</time></trkpt><trkpt lat="46.20272479817428" lon="13.119005444026246"><ele>176.8</ele><time>2026-04-04T14:03:16Z</time></trkpt><trkpt lat="46.20275439258216" lon="13.118850850832509"><ele>176.4</ele><time>2026-04-04T14:03:17Z</time></trkpt><trkpt lat="46.20279732194452" lon="13.118667915476326"><ele>176.0</ele><time>2026-04-04T14:03:18Z</time></trkpt><trkpt lat="46.20287825372927" lon="13.118481969559282"><ele>176.0</ele><time>2026-04-04T14:03:19Z</time></trkpt><trkpt lat="46.202974419832714" lon="13.118294964600583"><ele>176.0</ele><time>2026-04-04T14:03:20Z</time></trkpt><trkpt lat="46.203084869599635" lon="13.11809908874515"><ele>176.0</ele><time>2026-04-04T14:03:21Z</time></trkpt><trkpt lat="46.20319749795219" lon="13.117887507750085"><ele>175.66666666666666</ele><time>2026-04-04T14:03:22Z</time></trkpt><trkpt lat="46.20330906074165" lon="13.117662623467236"><ele>175.33333333333334</ele><time>2026-04-04T14:03:23Z</time></trkpt><trkpt lat="46.20342717349405" lon="13.117424020650528"><ele>175.0</ele><time>2026-04-04T14:03:24Z</time></trkpt><trkpt lat="46.20355425454266" lon="13.117180712265151"><ele>175.0</ele><time>2026-04-04T14:03:25Z</time></trkpt><trkpt lat="46.20369447659498" lon="13.116915757948233"><ele>175.0</ele><time>2026-04-04T14:03:26Z</time></trkpt><trkpt lat="46.20385699649466" lon="13.116606377510575"><ele>176.0</ele><time>2026-04-04T14:03:27Z</time></trkpt><trkpt lat="46.20401318813057" lon="13.116307975313804"><ele>177.0</ele><time>2026-04-04T14:03:28Z</time></trkpt><trkpt lat="46.20415466308619" lon="13.116043617220255"><ele>177.0</ele><time>2026-04-04T14:03:29Z</time></trkpt><trkpt lat="46.20428301495212" lon="13.11580210150026"><ele>177.0</ele><time>2026-04-04T14:03:30Z</time></trkpt><trkpt lat="46.20440844055088" lon="13.115564136956182"><ele>177.0</ele><time>2026-04-04T14:03:31Z</time></trkpt><trkpt lat="46.20454357596153" lon="13.115312225365457"><ele>176.5</ele><time>2026-04-04T14:03:32Z</time></trkpt><trkpt lat="46.20468417954099" lon="13.115050085295337"><ele>176.0</ele><time>2026-04-04T14:03:33Z</time></trkpt><trkpt lat="46.204820399036755" lon="13.114792234160621"><ele>176.33333333333331</ele><time>2026-04-04T14:03:34Z</time></trkpt><trkpt lat="46.20494224008562" lon="13.114556799366177"><ele>176.66666666666666</ele><time>2026-04-04T14:03:35Z</time></trkpt><trkpt lat="46.20505938872587" lon="13.11432486455991"><ele>177.0</ele><time>2026-04-04T14:03:36Z</time></trkpt><trkpt lat="46.205175675664805" lon="13.114097606593806"><ele>176.66666666666666</ele><time>2026-04-04T14:03:37Z</time></trkpt><trkpt lat="46.20529586534652" lon="13.113866895203525"><ele>176.33333333333331</ele><time>2026-04-04T14:03:38Z</time></trkpt><trkpt lat="46.20541915505641" lon="13.11362162076952"><ele>176.0</ele><time>2026-04-04T14:03:39Z</time></trkpt><trkpt lat="46.20554400332518" lon="13.113383278849774"><ele>177.0</ele><time>2026-04-04T14:03:40Z</time></trkpt><trkpt lat="46.205667731579005" lon="13.113149946819718"><ele>178.0</ele><time>2026-04-04T14:03:41Z</time></trkpt><trkpt lat="46.205794199111736" lon="13.112914386060288"><ele>179.0</ele><time>2026-04-04T14:03:42Z</time></trkpt><trkpt lat="46.205924277777136" lon="13.112670170777156"><ele>179.0</ele><time>2026-04-04T14:03:43Z</time></trkpt><trkpt lat="46.206057728800516" lon="13.112420382527121"><ele>179.0</ele><time>2026-04-04T14:03:44Z</time></trkpt><trkpt lat="46.20618687921254" lon="13.112181199109076"><ele>179.0</ele><time>2026-04-04T14:03:45Z</time></trkpt><trkpt lat="46.20630398756457" lon="13.111960992413254"><ele>179.0</ele><time>2026-04-04T14:03:46Z</time></trkpt><trkpt lat="46.20641859833117" lon="13.111739921835552"><ele>179.0</ele><time>2026-04-04T14:03:47Z</time></trkpt><trkpt lat="46.20653982195873" lon="13.111502977547078"><ele>179.0</ele><time>2026-04-04T14:03:48Z</time></trkpt><trkpt lat="46.206658756653525" lon="13.111266302262248"><ele>178.66666666666666</ele><time>2026-04-04T14:03:49Z</time></trkpt><trkpt lat="46.20675901368042" lon="13.111045667506781"><ele>178.33333333333334</ele><time>2026-04-04T14:03:50Z</time></trkpt><trkpt lat="46.20684999701478" lon="13.110834116751931"><ele>178.0</ele><time>2026-04-04T14:03:51Z</time></trkpt><trkpt lat="46.20693930878921" lon="13.110622037188227"><ele>177.33333333333334</ele><time>2026-04-04T14:03:52Z</time></trkpt><trkpt lat="46.2070329738014" lon="13.110392792688547"><ele>176.66666666666666</ele><time>2026-04-04T14:03:53Z</time></trkpt><trkpt lat="46.20712998534234" lon="13.110141614460684"><ele>176.0</ele><time>2026-04-04T14:03:54Z</time></trkpt><trkpt lat="46.207215717284065" lon="13.109903954092129"><ele>175.66666666666666</ele><time>2026-04-04T14:03:55Z</time></trkpt><trkpt lat="46.20729331441089" lon="13.109685480609004"><ele>175.33333333333334</ele><time>2026-04-04T14:03:56Z</time></trkpt><trkpt lat="46.20735327170427" lon="13.10947079696988"><ele>175.0</ele><time>2026-04-04T14:03:57Z</time></trkpt><trkpt lat="46.207423177374025" lon="13.109286998587649"><ele>175.5</ele><time>2026-04-04T14:03:58Z</time></trkpt><trkpt lat="46.20748466044389" lon="13.109121527469863"><ele>176.0</ele><time>2026-04-04T14:03:59Z</time></trkpt><trkpt lat="46.20753802546298" lon="13.108968277066582"><ele>176.5</ele><time>2026-04-04T14:04:00Z</time></trkpt><trkpt lat="46.20758898204284" lon="13.108824442488622"><ele>177.0</ele><time>2026-04-04T14:04:01Z</time></trkpt><trkpt lat="46.20763417303986" lon="13.108676420561894"><ele>177.0</ele><time>2026-04-04T14:04:02Z</time></trkpt><trkpt lat="46.207674837905934" lon="13.108537429191133"><ele>177.0</ele><time>2026-04-04T14:04:03Z</time></trkpt><trkpt lat="46.2077153090464" lon="13.108396567276834"><ele>177.0</ele><time>2026-04-04T14:04:04Z</time></trkpt><trkpt lat="46.20776236707811" lon="13.108252885912163"><ele>177.0</ele><time>2026-04-04T14:04:05Z</time></trkpt><trkpt lat="46.20781611681886" lon="13.108101444527954"><ele>177.0</ele><time>2026-04-04T14:04:06Z</time></trkpt><trkpt lat="46.20787438004749" lon="13.107940026639682"><ele>175.75</ele><time>2026-04-04T14:04:07Z</time></trkpt><trkpt lat="46.20793284966957" lon="13.107767283922131"><ele>174.5</ele><time>2026-04-04T14:04:08Z</time></trkpt><trkpt lat="46.207989998378594" lon="13.107600780523653"><ele>173.25</ele><time>2026-04-04T14:04:09Z</time></trkpt><trkpt lat="46.2080436121867" lon="13.107444869023249"><ele>172.0</ele><time>2026-04-04T14:04:10Z</time></trkpt><trkpt lat="46.208095189619584" lon="13.107290493080535"><ele>171.75</ele><time>2026-04-04T14:04:11Z</time></trkpt><trkpt lat="46.20814500233233" lon="13.107148709684028"><ele>171.5</ele><time>2026-04-04T14:04:12Z</time></trkpt><trkpt lat="46.208191982067035" lon="13.107005313002775"><ele>171.25</ele><time>2026-04-04T14:04:13Z</time></trkpt><trkpt lat="46.20825342198569" lon="13.106824815393566"><ele>171.0</ele><time>2026-04-04T14:04:14Z</time></trkpt><trkpt lat="46.20833297865363" lon="13.106603082743083"><ele>169.33333333333334</ele><time>2026-04-04T14:04:15Z</time></trkpt><trkpt lat="46.208420146312776" lon="13.106351847422847"><ele>167.66666666666669</ele><time>2026-04-04T14:04:16Z</time></trkpt><trkpt lat="46.20849789015533" lon="13.106125813151467"><ele>166.0</ele><time>2026-04-04T14:04:17Z</time></trkpt><trkpt lat="46.208567404408825" lon="13.105919004761663"><ele>164.33333333333334</ele><time>2026-04-04T14:04:18Z</time></trkpt><trkpt lat="46.20863138803128" lon="13.105719203290851"><ele>162.66666666666666</ele><time>2026-04-04T14:04:19Z</time></trkpt><trkpt lat="46.20870267409993" lon="13.105501074817976"><ele>161.0</ele><time>2026-04-04T14:04:20Z</time></trkpt><trkpt lat="46.20878746924127" lon="13.10525920971738"><ele>161.0</ele><time>2026-04-04T14:04:21Z</time></trkpt><trkpt lat="46.20887905530445" lon="13.105008941621007"><ele>161.0</ele><time>2026-04-04T14:04:22Z</time></trkpt><trkpt lat="46.208969206803765" lon="13.10476655367759"><ele>161.0</ele><time>2026-04-04T14:04:23Z</time></trkpt><trkpt lat="46.20905862608851" lon="13.104546042328511"><ele>161.33333333333331</ele><time>2026-04-04T14:04:24Z</time></trkpt><trkpt lat="46.20914898847483" lon="13.10433693876314"><ele>161.66666666666666</ele><time>2026-04-04T14:04:25Z</time></trkpt><trkpt lat="46.209243590192045" lon="13.104131936074985"><ele>162.0</ele><time>2026-04-04T14:04:26Z</time></trkpt><trkpt lat="46.20933995636927" lon="13.10392455391678"><ele>162.0</ele><time>2026-04-04T14:04:27Z</time></trkpt><trkpt lat="46.20944089545507" lon="13.103701782193749"><ele>162.0</ele><time>2026-04-04T14:04:28Z</time></trkpt><trkpt lat="46.20954485843197" lon="13.103463399792082"><ele>162.0</ele><time>2026-04-04T14:04:29Z</time></trkpt><trkpt lat="46.2096461559714" lon="13.10322876425785"><ele>162.0</ele><time>2026-04-04T14:04:30Z</time></trkpt><trkpt lat="46.209739516917715" lon="13.103016936995644"><ele>162.0</ele><time>2026-04-04T14:04:31Z</time></trkpt><trkpt lat="46.209826557765545" lon="13.102823814384955"><ele>162.0</ele><time>2026-04-04T14:04:32Z</time></trkpt><trkpt lat="46.20990895761403" lon="13.102640106273707"><ele>162.0</ele><time>2026-04-04T14:04:33Z</time></trkpt><trkpt lat="46.20998891356512" lon="13.102466135734613"><ele>162.0</ele><time>2026-04-04T14:04:34Z</time></trkpt><trkpt lat="46.210071148718626" lon="13.102292168826226"><ele>162.0</ele><time>2026-04-04T14:04:35Z</time></trkpt><trkpt lat="46.21016396611442" lon="13.102093811251205"><ele>162.0</ele><time>2026-04-04T14:04:36Z</time></trkpt><trkpt lat="46.21026310799268" lon="13.10185995208267"><ele>162.0</ele><time>2026-04-04T14:04:37Z</time></trkpt><trkpt lat="46.210370486766486" lon="13.101606927345857"><ele>162.0</ele><time>2026-04-04T14:04:38Z</time></trkpt><trkpt lat="46.21048152838645" lon="13.101347032862527"><ele>162.0</ele><time>2026-04-04T14:04:39Z</time></trkpt><trkpt lat="46.21058836952851" lon="13.10112015640315"><ele>162.0</ele><time>2026-04-04T14:04:40Z</time></trkpt><trkpt lat="46.210686679611015" lon="13.1009058601217"><ele>162.0</ele><time>2026-04-04T14:04:41Z</time></trkpt><trkpt lat="46.21078255245247" lon="13.100693923365958"><ele>162.66666666666666</ele><time>2026-04-04T14:04:42Z</time></trkpt><trkpt lat="46.21087781462935" lon="13.100477736337963"><ele>163.33333333333331</ele><time>2026-04-04T14:04:43Z</time></trkpt><trkpt lat="46.210977913634416" lon="13.100258837112213"><ele>164.0</ele><time>2026-04-04T14:04:44Z</time></trkpt><trkpt lat="46.21107807291567" lon="13.100040272475283"><ele>164.66666666666666</ele><time>2026-04-04T14:04:45Z</time></trkpt><trkpt lat="46.211180595890745" lon="13.099814404431369"><ele>165.33333333333334</ele><time>2026-04-04T14:04:46Z</time></trkpt><trkpt lat="46.21128004521993" lon="13.099592893813877"><ele>166.0</ele><time>2026-04-04T14:04:47Z</time></trkpt><trkpt lat="46.2113807114797" lon="13.099366050127644"><ele>166.0</ele><time>2026-04-04T14:04:48Z</time></trkpt><trkpt lat="46.211479892984904" lon="13.099142596885653"><ele>166.0</ele><time>2026-04-04T14:04:49Z</time></trkpt><trkpt lat="46.211578357444516" lon="13.098917204339465"><ele>166.0</ele><time>2026-04-04T14:04:50Z</time></trkpt><trkpt lat="46.21167409030635" lon="13.09870030116936"><ele>164.0</ele><time>2026-04-04T14:04:51Z</time></trkpt><trkpt lat="46.21176822715975" lon="13.098493386959268"><ele>162.0</ele><time>2026-04-04T14:04:52Z</time></trkpt><trkpt lat="46.21187063242446" lon="13.098268440973907"><ele>160.0</ele><time>2026-04-04T14:04:53Z</time></trkpt><trkpt lat="46.21197714394995" lon="13.098026898947918"><ele>160.0</ele><time>2026-04-04T14:04:54Z</time></trkpt><trkpt lat="46.21209126565595" lon="13.09777138060847"><ele>160.0</ele><time>2026-04-04T14:04:55Z</time></trkpt><trkpt lat="46.21220001861541" lon="13.097526867963138"><ele>160.0</ele><time>2026-04-04T14:04:56Z</time></trkpt><trkpt lat="46.21230224748331" lon="13.097297159287276"><ele>161.33333333333334</ele><time>2026-04-04T14:04:57Z</time></trkpt><trkpt lat="46.21239971101896" lon="13.097071290221887"><ele>162.66666666666666</ele><time>2026-04-04T14:04:58Z</time></trkpt><trkpt lat="46.21249694069242" lon="13.096844144452795"><ele>164.0</ele><time>2026-04-04T14:04:59Z</time></trkpt><trkpt lat="46.212598673033014" lon="13.096612396052256"><ele>163.33333333333331</ele><time>2026-04-04T14:05:00Z</time></trkpt><trkpt lat="46.21270305604303" lon="13.096378773264105"><ele>162.66666666666666</ele><time>2026-04-04T14:05:01Z</time></trkpt><trkpt lat="46.212801579404214" lon="13.096159642314035"><ele>162.0</ele><time>2026-04-04T14:05:02Z</time></trkpt><trkpt lat="46.21289768571553" lon="13.095943349439226"><ele>163.0</ele><time>2026-04-04T14:05:03Z</time></trkpt><trkpt lat="46.21299249371388" lon="13.095727592126192"><ele>164.0</ele><time>2026-04-04T14:05:04Z</time></trkpt><trkpt lat="46.213093077384926" lon="13.095503752015553"><ele>165.0</ele><time>2026-04-04T14:05:05Z</time></trkpt><trkpt lat="46.21319734335289" lon="13.095275086762587"><ele>165.33333333333334</ele><time>2026-04-04T14:05:06Z</time></trkpt><trkpt lat="46.21330297049922" lon="13.095037609574971"><ele>165.66666666666669</ele><time>2026-04-04T14:05:07Z</time></trkpt><trkpt lat="46.21340847083094" lon="13.094800748596318"><ele>166.0</ele><time>2026-04-04T14:05:08Z</time></trkpt><trkpt lat="46.213510125993004" lon="13.094577395395012"><ele>166.33333333333334</ele><time>2026-04-04T14:05:09Z</time></trkpt><trkpt lat="46.21360848016832" lon="13.094357533883441"><ele>166.66666666666666</ele><time>2026-04-04T14:05:10Z</time></trkpt><trkpt lat="46.21370463573964" lon="13.094140719320835"><ele>167.0</ele><time>2026-04-04T14:05:11Z</time></trkpt><trkpt lat="46.2138089898354" lon="13.09391074870083"><ele>167.0</ele><time>2026-04-04T14:05:12Z</time></trkpt><trkpt lat="46.2139185196561" lon="13.093665409507274"><ele>167.0</ele><time>2026-04-04T14:05:13Z</time></trkpt><trkpt lat="46.21402895311118" lon="13.093408244784106"><ele>167.0</ele><time>2026-04-04T14:05:14Z</time></trkpt><trkpt lat="46.214133592408466" lon="13.09316579655706"><ele>167.33333333333331</ele><time>2026-04-04T14:05:15Z</time></trkpt><trkpt lat="46.21423324008101" lon="13.092944306261991"><ele>167.66666666666666</ele><time>2026-04-04T14:05:16Z</time></trkpt><trkpt lat="46.21433082290061" lon="13.092729297487903"><ele>168.0</ele><time>2026-04-04T14:05:17Z</time></trkpt><trkpt lat="46.214431069332754" lon="13.092509012898885"><ele>167.0</ele><time>2026-04-04T14:05:18Z</time></trkpt><trkpt lat="46.21453961366203" lon="13.09226564627393"><ele>166.0</ele><time>2026-04-04T14:05:19Z</time></trkpt><trkpt lat="46.214648582908715" lon="13.092021231315075"><ele>165.0</ele><time>2026-04-04T14:05:20Z</time></trkpt><trkpt lat="46.21475266202851" lon="13.091787254178987"><ele>164.66666666666666</ele><time>2026-04-04T14:05:21Z</time></trkpt><trkpt lat="46.214853845048836" lon="13.091560792686815"><ele>164.33333333333331</ele><time>2026-04-04T14:05:22Z</time></trkpt><trkpt lat="46.2149517356007" lon="13.091343081914953"><ele>164.0</ele><time>2026-04-04T14:05:23Z</time></trkpt><trkpt lat="46.21504560563385" lon="13.09113436410166"><ele>164.0</ele><time>2026-04-04T14:05:24Z</time></trkpt><trkpt lat="46.215134369904106" lon="13.090935829027611"><ele>164.0</ele><time>2026-04-04T14:05:25Z</time></trkpt><trkpt lat="46.215221450395504" lon="13.090747000756647"><ele>164.0</ele><time>2026-04-04T14:05:26Z</time></trkpt><trkpt lat="46.215304143564595" lon="13.090565876241818"><ele>163.5</ele><time>2026-04-04T14:05:27Z</time></trkpt><trkpt lat="46.21538012201106" lon="13.090388412580396"><ele>163.0</ele><time>2026-04-04T14:05:28Z</time></trkpt><trkpt lat="46.215451943381694" lon="13.090219602269448"><ele>162.5</ele><time>2026-04-04T14:05:29Z</time></trkpt><trkpt lat="46.21552088305344" lon="13.090057250083593"><ele>162.0</ele><time>2026-04-04T14:05:30Z</time></trkpt><trkpt lat="46.21558845970413" lon="13.089903864680782"><ele>162.0</ele><time>2026-04-04T14:05:31Z</time></trkpt><trkpt lat="46.21566352744722" lon="13.089736087028838"><ele>162.0</ele><time>2026-04-04T14:05:32Z</time></trkpt><trkpt lat="46.21574675156579" lon="13.08954968644962"><ele>162.0</ele><time>2026-04-04T14:05:33Z</time></trkpt><trkpt lat="46.215842001105585" lon="13.089336086810425"><ele>162.0</ele><time>2026-04-04T14:05:34Z</time></trkpt><trkpt lat="46.21594216730223" lon="13.08910656330298"><ele>162.0</ele><time>2026-04-04T14:05:35Z</time></trkpt><trkpt lat="46.21603658955487" lon="13.088894332197334"><ele>162.0</ele><time>2026-04-04T14:05:36Z</time></trkpt><trkpt lat="46.21612711803588" lon="13.088694938135097"><ele>161.75</ele><time>2026-04-04T14:05:37Z</time></trkpt><trkpt lat="46.21621261702613" lon="13.088509165949533"><ele>161.5</ele><time>2026-04-04T14:05:38Z</time></trkpt><trkpt lat="46.21629059486911" lon="13.088333761708435"><ele>161.25</ele><time>2026-04-04T14:05:39Z</time></trkpt><trkpt lat="46.21636441208034" lon="13.088163867966779"><ele>161.0</ele><time>2026-04-04T14:05:40Z</time></trkpt><trkpt lat="46.21643998140632" lon="13.087993317162205"><ele>161.5</ele><time>2026-04-04T14:05:41Z</time></trkpt><trkpt lat="46.21651022026886" lon="13.087827484400433"><ele>162.0</ele><time>2026-04-04T14:05:42Z</time></trkpt><trkpt lat="46.2165747372711" lon="13.087672666804625"><ele>162.5</ele><time>2026-04-04T14:05:43Z</time></trkpt><trkpt lat="46.21663993919414" lon="13.0875262240838"><ele>163.0</ele><time>2026-04-04T14:05:44Z</time></trkpt><trkpt lat="46.21670570783819" lon="13.08739157487116"><ele>163.4</ele><time>2026-04-04T14:05:45Z</time></trkpt><trkpt lat="46.21677932805776" lon="13.08727924069915"><ele>163.8</ele><time>2026-04-04T14:05:46Z</time></trkpt><trkpt lat="46.21685978833611" lon="13.087189162386778"><ele>164.2</ele><time>2026-04-04T14:05:47Z</time></trkpt><trkpt lat="46.21695989563039" lon="13.087125203302959"><ele>164.6</ele><time>2026-04-04T14:05:48Z</time></trkpt><trkpt lat="46.21705484080423" lon="13.087100775119957"><ele>165.0</ele><time>2026-04-04T14:05:49Z</time></trkpt><trkpt lat="46.217137360659144" lon="13.087077381128598"><ele>165.0</ele><time>2026-04-04T14:05:50Z</time></trkpt><trkpt lat="46.217201821849144" lon="13.087008285192308"><ele>165.0</ele><time>2026-04-04T14:05:51Z</time></trkpt><trkpt lat="46.217234950040684" lon="13.086889033495162"><ele>165.0</ele><time>2026-04-04T14:05:52Z</time></trkpt><trkpt lat="46.21723571989307" lon="13.086753758842288"><ele>165.0</ele><time>2026-04-04T14:05:53Z</time></trkpt><trkpt lat="46.217187104000075" lon="13.086617858461729"><ele>165.0</ele><time>2026-04-04T14:05:54Z</time></trkpt><trkpt lat="46.21718296730667" lon="13.086440348604112"><ele>165.0</ele><time>2026-04-04T14:05:55Z</time></trkpt><trkpt lat="46.217151009484894" lon="13.086288507817475"><ele>165.0</ele><time>2026-04-04T14:05:56Z</time></trkpt><trkpt lat="46.21725048144627" lon="13.08614555618278"><ele>165.0</ele><time>2026-04-04T14:05:57Z</time></trkpt><trkpt lat="46.2173082929452" lon="13.086034670940611"><ele>165.0</ele><time>2026-04-04T14:05:58Z</time></trkpt><trkpt lat="46.21737431959443" lon="13.08588437359895"><ele>165.0</ele><time>2026-04-04T14:05:59Z</time></trkpt><trkpt lat="46.21745254453521" lon="13.085712524171608"><ele>165.0</ele><time>2026-04-04T14:06:00Z</time></trkpt><trkpt lat="46.21753891303705" lon="13.085515406085674"><ele>165.0</ele><time>2026-04-04T14:06:01Z</time></trkpt><trkpt lat="46.217646575845805" lon="13.085271941724654"><ele>165.0</ele><time>2026-04-04T14:06:02Z</time></trkpt><trkpt lat="46.217764107623246" lon="13.085008323342818"><ele>165.0</ele><time>2026-04-04T14:06:03Z</time></trkpt><trkpt lat="46.217868267085976" lon="13.084774000370526"><ele>165.0</ele><time>2026-04-04T14:06:04Z</time></trkpt><trkpt lat="46.217963563395045" lon="13.084572140011888"><ele>164.66666666666666</ele><time>2026-04-04T14:06:05Z</time></trkpt><trkpt lat="46.21804895594551" lon="13.084378120474236"><ele>164.33333333333331</ele><time>2026-04-04T14:06:06Z</time></trkpt><trkpt lat="46.218126612245975" lon="13.084194596849237"><ele>164.0</ele><time>2026-04-04T14:06:07Z</time></trkpt><trkpt lat="46.218213167875575" lon="13.084000712560128"><ele>164.0</ele><time>2026-04-04T14:06:08Z</time></trkpt><trkpt lat="46.218302704832816" lon="13.083803816648333"><ele>164.0</ele><time>2026-04-04T14:06:09Z</time></trkpt><trkpt lat="46.218379757413" lon="13.083637768094865"><ele>164.0</ele><time>2026-04-04T14:06:10Z</time></trkpt><trkpt lat="46.21843891697527" lon="13.083500866181009"><ele>164.0</ele><time>2026-04-04T14:06:11Z</time></trkpt><trkpt lat="46.2184880918835" lon="13.083383904431319"><ele>164.0</ele><time>2026-04-04T14:06:12Z</time></trkpt><trkpt lat="46.21852552708284" lon="13.083291983985623"><ele>164.0</ele><time>2026-04-04T14:06:13Z</time></trkpt><trkpt lat="46.21856006125624" lon="13.083212393475465"><ele>164.0</ele><time>2026-04-04T14:06:14Z</time></trkpt><trkpt lat="46.21862897791743" lon="13.083073921616034"><ele>164.0</ele><time>2026-04-04T14:06:16Z</time></trkpt><trkpt lat="46.218467694582664" lon="13.08291061762242"><ele>164.0</ele><time>2026-04-04T14:06:18Z</time></trkpt><trkpt lat="46.21838654986672" lon="13.08282323978022"><ele>164.0</ele><time>2026-04-04T14:06:19Z</time></trkpt><trkpt lat="46.21829054795324" lon="13.082757194275176"><ele>164.0</ele><time>2026-04-04T14:06:20Z</time></trkpt><trkpt lat="46.21820280586051" lon="13.082689525744305"><ele>164.0</ele><time>2026-04-04T14:06:21Z</time></trkpt><trkpt lat="46.21812625520606" lon="13.082633720916384"><ele>164.0</ele><time>2026-04-04T14:06:22Z</time></trkpt><trkpt lat="46.218053111501575" lon="13.082601408756968"><ele>164.0</ele><time>2026-04-04T14:06:23Z</time></trkpt><trkpt lat="46.2179776527706" lon="13.082551682469498"><ele>164.0</ele><time>2026-04-04T14:06:24Z</time></trkpt><trkpt lat="46.217883727833936" lon="13.082499825761126"><ele>164.0</ele><time>2026-04-04T14:06:25Z</time></trkpt><trkpt lat="46.217777911323886" lon="13.082431856601113"><ele>164.0</ele><time>2026-04-04T14:06:26Z</time></trkpt><trkpt lat="46.21767569790978" lon="13.082364764634828"><ele>164.0</ele><time>2026-04-04T14:06:27Z</time></trkpt><trkpt lat="46.2175723112889" lon="13.082303040978267"><ele>164.0</ele><time>2026-04-04T14:06:28Z</time></trkpt><trkpt lat="46.21746916215719" lon="13.082237686915054"><ele>164.0</ele><time>2026-04-04T14:06:29Z</time></trkpt><trkpt lat="46.21736653483546" lon="13.082177190512125"><ele>164.0</ele><time>2026-04-04T14:06:30Z</time></trkpt><trkpt lat="46.21727702006549" lon="13.08212396544143"><ele>164.0</ele><time>2026-04-04T14:06:31Z</time></trkpt><trkpt lat="46.21719469046459" lon="13.082073236722868"><ele>164.0</ele><time>2026-04-04T14:06:32Z</time></trkpt><trkpt lat="46.2171289475679" lon="13.08203188069329"><ele>164.0</ele><time>2026-04-04T14:06:33Z</time></trkpt><trkpt lat="46.21701659188621" lon="13.081967183785574"><ele>164.0</ele><time>2026-04-04T14:06:35Z</time></trkpt><trkpt lat="46.216909751318354" lon="13.081906126677719"><ele>164.0</ele><time>2026-04-04T14:06:37Z</time></trkpt><trkpt lat="46.21680401846768" lon="13.081820599267868"><ele>164.0</ele><time>2026-04-04T14:06:39Z</time></trkpt><trkpt lat="46.216736492108225" lon="13.081802061763582"><ele>164.0</ele><time>2026-04-04T14:06:40Z</time></trkpt><trkpt lat="46.21667383999691" lon="13.081760211375542"><ele>164.0</ele><time>2026-04-04T14:06:41Z</time></trkpt><trkpt lat="46.2165809952992" lon="13.08166519747136"><ele>164.0</ele><time>2026-04-04T14:06:43Z</time></trkpt><trkpt lat="46.21649218943978" lon="13.081532129723787"><ele>164.0</ele><time>2026-04-04T14:06:45Z</time></trkpt><trkpt lat="46.2164864632804" lon="13.08130525623067"><ele>164.0</ele><time>2026-04-04T14:06:47Z</time></trkpt><trkpt lat="46.21648520213418" lon="13.08113628793224"><ele>164.0</ele><time>2026-04-04T14:06:49Z</time></trkpt><trkpt lat="46.21646780201592" lon="13.080973760786295"><ele>164.0</ele><time>2026-04-04T14:06:51Z</time></trkpt><trkpt lat="46.216444191206975" lon="13.080868522368771"><ele>164.0</ele><time>2026-04-04T14:06:52Z</time></trkpt><trkpt lat="46.216414255903274" lon="13.08076008129824"><ele>164.0</ele><time>2026-04-04T14:06:53Z</time></trkpt><trkpt lat="46.216373436206595" lon="13.080677633709042"><ele>164.0</ele><time>2026-04-04T14:06:54Z</time></trkpt><trkpt lat="46.216321790651016" lon="13.08061378353464"><ele>164.0</ele><time>2026-04-04T14:06:55Z</time></trkpt><trkpt lat="46.216255162988055" lon="13.080554351912763"><ele>163.83333333333331</ele><time>2026-04-04T14:06:56Z</time></trkpt><trkpt lat="46.216169150033416" lon="13.08050444083518"><ele>163.66666666666666</ele><time>2026-04-04T14:06:57Z</time></trkpt><trkpt lat="46.21608434497151" lon="13.080448705084224"><ele>163.5</ele><time>2026-04-04T14:06:58Z</time></trkpt><trkpt lat="46.21600177798491" lon="13.080408418556228"><ele>163.33333333333334</ele><time>2026-04-04T14:06:59Z</time></trkpt><trkpt lat="46.2159264885558" lon="13.080384793860116"><ele>163.16666666666669</ele><time>2026-04-04T14:07:00Z</time></trkpt><trkpt lat="46.21585923407848" lon="13.08034586942316"><ele>163.0</ele><time>2026-04-04T14:07:01Z</time></trkpt><trkpt lat="46.2157798996774" lon="13.08033892328038"><ele>163.0</ele><time>2026-04-04T14:07:02Z</time></trkpt><trkpt lat="46.21568789387445" lon="13.0803465767079"><ele>163.0</ele><time>2026-04-04T14:07:03Z</time></trkpt><trkpt lat="46.21558529251424" lon="13.080317396222826"><ele>163.0</ele><time>2026-04-04T14:07:04Z</time></trkpt><trkpt lat="46.21549045153597" lon="13.080282736829117"><ele>163.0</ele><time>2026-04-04T14:07:05Z</time></trkpt><trkpt lat="46.215414035209136" lon="13.08025470014721"><ele>163.0</ele><time>2026-04-04T14:07:06Z</time></trkpt><trkpt lat="46.215340452721776" lon="13.080228567178183"><ele>163.0</ele><time>2026-04-04T14:07:07Z</time></trkpt><trkpt lat="46.21526683332999" lon="13.08019977694132"><ele>163.0</ele><time>2026-04-04T14:07:08Z</time></trkpt><trkpt lat="46.21519948137558" lon="13.080177011225125"><ele>163.0</ele><time>2026-04-04T14:07:09Z</time></trkpt><trkpt lat="46.21513058837107" lon="13.080147721161913"><ele>163.0</ele><time>2026-04-04T14:07:10Z</time></trkpt><trkpt lat="46.21504778790063" lon="13.0801019825448"><ele>163.0</ele><time>2026-04-04T14:07:11Z</time></trkpt><trkpt lat="46.21495903821605" lon="13.080030646069726"><ele>163.0</ele><time>2026-04-04T14:07:12Z</time></trkpt><trkpt lat="46.21487497991973" lon="13.079937221115095"><ele>163.0</ele><time>2026-04-04T14:07:13Z</time></trkpt><trkpt lat="46.21479283258648" lon="13.079845569553358"><ele>162.83333333333334</ele><time>2026-04-04T14:07:14Z</time></trkpt><trkpt lat="46.214718733938334" lon="13.079770006002196"><ele>162.66666666666669</ele><time>2026-04-04T14:07:15Z</time></trkpt><trkpt lat="46.214655420929525" lon="13.079707217795468"><ele>162.5</ele><time>2026-04-04T14:07:16Z</time></trkpt><trkpt lat="46.2145942636293" lon="13.079645549854723"><ele>162.33333333333334</ele><time>2026-04-04T14:07:17Z</time></trkpt><trkpt lat="46.214531055023066" lon="13.0795795237307"><ele>162.16666666666666</ele><time>2026-04-04T14:07:18Z</time></trkpt><trkpt lat="46.21445744343646" lon="13.07950856155255"><ele>162.0</ele><time>2026-04-04T14:07:19Z</time></trkpt><trkpt lat="46.21437646008954" lon="13.079431410908665"><ele>162.0</ele><time>2026-04-04T14:07:20Z</time></trkpt><trkpt lat="46.21429844306498" lon="13.07935295099242"><ele>162.0</ele><time>2026-04-04T14:07:21Z</time></trkpt><trkpt lat="46.214226286377446" lon="13.07928417898703"><ele>162.0</ele><time>2026-04-04T14:07:22Z</time></trkpt><trkpt lat="46.21416672940693" lon="13.079224853162167"><ele>162.0</ele><time>2026-04-04T14:07:23Z</time></trkpt><trkpt lat="46.2141095572118" lon="13.079170477932065"><ele>162.0</ele><time>2026-04-04T14:07:24Z</time></trkpt><trkpt lat="46.21405464434415" lon="13.079116184691653"><ele>162.0</ele><time>2026-04-04T14:07:25Z</time></trkpt><trkpt lat="46.21399466354115" lon="13.079053582302416"><ele>161.83333333333334</ele><time>2026-04-04T14:07:26Z</time></trkpt><trkpt lat="46.21392978969382" lon="13.078994062952763"><ele>161.66666666666666</ele><time>2026-04-04T14:07:27Z</time></trkpt><trkpt lat="46.213858974136365" lon="13.078928877305863"><ele>161.5</ele><time>2026-04-04T14:07:28Z</time></trkpt><trkpt lat="46.213787981383895" lon="13.078860285957186"><ele>161.33333333333331</ele><time>2026-04-04T14:07:29Z</time></trkpt><trkpt lat="46.21371239386936" lon="13.078790055093009"><ele>161.16666666666666</ele><time>2026-04-04T14:07:30Z</time></trkpt><trkpt lat="46.21363963832945" lon="13.078717223121314"><ele>161.0</ele><time>2026-04-04T14:07:31Z</time></trkpt><trkpt lat="46.21357672987628" lon="13.078652248783701"><ele>161.0</ele><time>2026-04-04T14:07:32Z</time></trkpt><trkpt lat="46.213518049099974" lon="13.078602947338693"><ele>161.0</ele><time>2026-04-04T14:07:33Z</time></trkpt><trkpt lat="46.21345508591101" lon="13.078552898401073"><ele>161.0</ele><time>2026-04-04T14:07:34Z</time></trkpt><trkpt lat="46.21338366367162" lon="13.07849957004457"><ele>161.0</ele><time>2026-04-04T14:07:35Z</time></trkpt><trkpt lat="46.21331002687966" lon="13.078458656561859"><ele>161.0</ele><time>2026-04-04T14:07:36Z</time></trkpt><trkpt lat="46.21324544886867" lon="13.078404488975025"><ele>161.0</ele><time>2026-04-04T14:07:37Z</time></trkpt><trkpt lat="46.213165218107505" lon="13.07839799134118"><ele>161.5</ele><time>2026-04-04T14:07:38Z</time></trkpt><trkpt lat="46.2130906399719" lon="13.078384053440713"><ele>162.0</ele><time>2026-04-04T14:07:39Z</time></trkpt><trkpt lat="46.21302356586949" lon="13.078381756773378"><ele>162.5</ele><time>2026-04-04T14:07:40Z</time></trkpt><trkpt lat="46.212913846360834" lon="13.078363900269872"><ele>163.0</ele><time>2026-04-04T14:07:42Z</time></trkpt><trkpt lat="46.21281392812656" lon="13.078367863844413"><ele>163.5</ele><time>2026-04-04T14:07:44Z</time></trkpt><trkpt lat="46.21271981785552" lon="13.078354520952725"><ele>164.0</ele><time>2026-04-04T14:07:46Z</time></trkpt><trkpt lat="46.212642986309085" lon="13.078328921825507"><ele>164.0</ele><time>2026-04-04T14:07:48Z</time></trkpt><trkpt lat="46.21259146517629" lon="13.078258559347573"><ele>162.0</ele><time>2026-04-04T14:07:52Z</time></trkpt></trkseg></trk></gpx>